Hébergeur de fichiers indépendant

20161223.gpx

À propos

Type de fichier
Fichier GPX de 144 Ko (application/xml)
Confidentialité
Fichier public, envoyé le 23 décembre 2016 à 11:23, depuis l'adresse IP 2.13.x.x (France)
Sécurité
Ne contient aucun Virus ou Malware connus - Dernière vérification: 25 heures
Statistiques
La présente page de téléchargement a été vue 267 fois depuis l'envoi du fichier
Page de téléchargement

Aperçu du fichier


<?xml version="1.0" encoding="UTF-8"?>
<gpx version="1.1" 
creator="ViewRanger/7.0.28 http://www.viewranger.com"
xmlns:xsi="http://www.w3.org/2001/XMLSchema-instance"
xmlns="http://www.topografix.com/GPX/1/1"
xmlns:gpxtpx="http://www.garmin.com/xmlschemas/TrackPointExtension/v1"
xmlns:viewranger="http://www.viewranger.com/xmlschemas/GpxExtensions/v2"
xmlns:gpx_style="http://www.topografix.com/GPX/gpx_style/0/2"
xsi:schemaLocation="http://www.topografix.com/GPX/1/1 http://www.topografix.com/GPX/1/1/gpx.xsd http://www.topografix.com/GPX/gpx_style/0/2
http://www.topografix.com/GPX/gpx_style/0/2/gpx_style.xsd http://www.viewranger.com/xmlschemas/GpxExtensions/v2 http://www.viewranger.com/xmlschemas/GpxExtensions/v2/GpxExtensionsV2.xsd">
<trk>
<name><![CDATA[Tracé 22 déc. 2016 1:28:25 PM]]></name>
<trkseg>
<trkpt lat="48.090298" lon="-4.331678"><ele>76.0</ele><time>2016-12-22T12:28:25Z</time></trkpt>
<trkpt lat="48.090298" lon="-4.331678"><ele>76.0</ele><time>2016-12-22T12:29:17Z</time></trkpt>
<trkpt lat="48.090458" lon="-4.331707"><ele>58.0</ele><time>2016-12-22T12:29:20Z</time></trkpt>
<trkpt lat="48.090224" lon="-4.331788"><ele>83.0</ele><time>2016-12-22T12:29:24Z</time></trkpt>
<trkpt lat="48.090300" lon="-4.331839"><ele>77.0</ele><time>2016-12-22T12:29:35Z</time></trkpt>
<trkpt lat="48.090332" lon="-4.331960"><ele>75.0</ele><time>2016-12-22T12:29:54Z</time></trkpt>
<trkpt lat="48.090267" lon="-4.332029"><ele>75.0</ele><time>2016-12-22T12:30:26Z</time></trkpt>
<trkpt lat="48.090212" lon="-4.332133"><ele>64.0</ele><time>2016-12-22T12:30:39Z</time></trkpt>
<trkpt lat="48.090295" lon="-4.332126"><ele>59.0</ele><time>2016-12-22T12:30:51Z</time></trkpt>
<trkpt lat="48.090333" lon="-4.332235"><ele>55.0</ele><time>2016-12-22T12:31:10Z</time></trkpt>
<trkpt lat="48.090391" lon="-4.332313"><ele>56.0</ele><time>2016-12-22T12:31:15Z</time></trkpt>
<trkpt lat="48.090492" lon="-4.332411"><ele>57.0</ele><time>2016-12-22T12:31:20Z</time></trkpt>
<trkpt lat="48.090561" lon="-4.332483"><ele>60.0</ele><time>2016-12-22T12:31:29Z</time></trkpt>
<trkpt lat="48.090642" lon="-4.332477"><ele>62.0</ele><time>2016-12-22T12:31:36Z</time></trkpt>
<trkpt lat="48.090726" lon="-4.332518"><ele>64.0</ele><time>2016-12-22T12:31:45Z</time></trkpt>
<trkpt lat="48.090776" lon="-4.332629"><ele>66.0</ele><time>2016-12-22T12:31:53Z</time></trkpt>
<trkpt lat="48.090863" lon="-4.332665"><ele>63.0</ele><time>2016-12-22T12:32:00Z</time></trkpt>
<trkpt lat="48.090934" lon="-4.332708"><ele>62.0</ele><time>2016-12-22T12:32:05Z</time></trkpt>
<trkpt lat="48.091015" lon="-4.332733"><ele>59.0</ele><time>2016-12-22T12:32:11Z</time></trkpt>
<trkpt lat="48.091085" lon="-4.332753"><ele>53.0</ele><time>2016-12-22T12:32:16Z</time></trkpt>
<trkpt lat="48.091152" lon="-4.332801"><ele>52.0</ele><time>2016-12-22T12:32:20Z</time></trkpt>
<trkpt lat="48.091227" lon="-4.332857"><ele>50.0</ele><time>2016-12-22T12:32:25Z</time></trkpt>
<trkpt lat="48.091305" lon="-4.332909"><ele>57.0</ele><time>2016-12-22T12:32:31Z</time></trkpt>
<trkpt lat="48.091373" lon="-4.332964"><ele>60.0</ele><time>2016-12-22T12:32:37Z</time></trkpt>
<trkpt lat="48.091441" lon="-4.333037"><ele>62.0</ele><time>2016-12-22T12:32:43Z</time></trkpt>
<trkpt lat="48.091510" lon="-4.333096"><ele>64.0</ele><time>2016-12-22T12:32:48Z</time></trkpt>
<trkpt lat="48.091590" lon="-4.333140"><ele>65.0</ele><time>2016-12-22T12:32:54Z</time></trkpt>
<trkpt lat="48.091666" lon="-4.333199"><ele>64.0</ele><time>2016-12-22T12:33:02Z</time></trkpt>
<trkpt lat="48.091746" lon="-4.333241"><ele>62.0</ele><time>2016-12-22T12:33:11Z</time></trkpt>
<trkpt lat="48.091831" lon="-4.333276"><ele>60.0</ele><time>2016-12-22T12:33:16Z</time></trkpt>
<trkpt lat="48.091913" lon="-4.333306"><ele>60.0</ele><time>2016-12-22T12:33:21Z</time></trkpt>
<trkpt lat="48.091995" lon="-4.333360"><ele>63.0</ele><time>2016-12-22T12:33:28Z</time></trkpt>
<trkpt lat="48.092097" lon="-4.333401"><ele>60.0</ele><time>2016-12-22T12:33:32Z</time></trkpt>
<trkpt lat="48.092180" lon="-4.333442"><ele>57.0</ele><time>2016-12-22T12:33:37Z</time></trkpt>
<trkpt lat="48.092253" lon="-4.333467"><ele>55.0</ele><time>2016-12-22T12:33:42Z</time></trkpt>
<trkpt lat="48.092335" lon="-4.333496"><ele>54.0</ele><time>2016-12-22T12:33:48Z</time></trkpt>
<trkpt lat="48.092400" lon="-4.333559"><ele>53.0</ele><time>2016-12-22T12:33:55Z</time></trkpt>
<trkpt lat="48.092495" lon="-4.333607"><ele>52.0</ele><time>2016-12-22T12:34:00Z</time></trkpt>
<trkpt lat="48.092575" lon="-4.333648"><ele>57.0</ele><time>2016-12-22T12:34:04Z</time></trkpt>
<trkpt lat="48.092675" lon="-4.333685"><ele>59.0</ele><time>2016-12-22T12:34:09Z</time></trkpt>
<trkpt lat="48.092748" lon="-4.333727"><ele>58.0</ele><time>2016-12-22T12:34:13Z</time></trkpt>
<trkpt lat="48.092826" lon="-4.333777"><ele>58.0</ele><time>2016-12-22T12:34:19Z</time></trkpt>
<trkpt lat="48.092901" lon="-4.333824"><ele>62.0</ele><time>2016-12-22T12:34:25Z</time></trkpt>
<trkpt lat="48.092980" lon="-4.333868"><ele>63.0</ele><time>2016-12-22T12:34:30Z</time></trkpt>
<trkpt lat="48.093065" lon="-4.333916"><ele>67.0</ele><time>2016-12-22T12:34:35Z</time></trkpt>
<trkpt lat="48.093126" lon="-4.333978"><ele>63.0</ele><time>2016-12-22T12:34:42Z</time></trkpt>
<trkpt lat="48.093206" lon="-4.334025"><ele>63.0</ele><time>2016-12-22T12:34:47Z</time></trkpt>
<trkpt lat="48.093287" lon="-4.334061"><ele>61.0</ele><time>2016-12-22T12:34:52Z</time></trkpt>
<trkpt lat="48.093368" lon="-4.334101"><ele>61.0</ele><time>2016-12-22T12:34:57Z</time></trkpt>
<trkpt lat="48.093445" lon="-4.334130"><ele>61.0</ele><time>2016-12-22T12:35:02Z</time></trkpt>
<trkpt lat="48.093513" lon="-4.334189"><ele>61.0</ele><time>2016-12-22T12:35:08Z</time></trkpt>
<trkpt lat="48.093588" lon="-4.334234"><ele>60.0</ele><time>2016-12-22T12:35:13Z</time></trkpt>
<trkpt lat="48.093662" lon="-4.334308"><ele>60.0</ele><time>2016-12-22T12:35:21Z</time></trkpt>
<trkpt lat="48.093739" lon="-4.334357"><ele>59.0</ele><time>2016-12-22T12:35:27Z</time></trkpt>
<trkpt lat="48.093818" lon="-4.334398"><ele>58.0</ele><time>2016-12-22T12:35:33Z</time></trkpt>
<trkpt lat="48.093894" lon="-4.334441"><ele>58.0</ele><time>2016-12-22T12:35:38Z</time></trkpt>
<trkpt lat="48.093963" lon="-4.334508"><ele>57.0</ele><time>2016-12-22T12:35:45Z</time></trkpt>
<trkpt lat="48.094058" lon="-4.334553"><ele>62.0</ele><time>2016-12-22T12:35:49Z</time></trkpt>
<trkpt lat="48.094154" lon="-4.334591"><ele>62.0</ele><time>2016-12-22T12:35:54Z</time></trkpt>
<trkpt lat="48.094225" lon="-4.334620"><ele>63.0</ele><time>2016-12-22T12:35:58Z</time></trkpt>
<trkpt lat="48.094327" lon="-4.334670"><ele>65.0</ele><time>2016-12-22T12:36:03Z</time></trkpt>
<trkpt lat="48.094405" lon="-4.334721"><ele>65.0</ele><time>2016-12-22T12:36:08Z</time></trkpt>
<trkpt lat="48.094482" lon="-4.334759"><ele>64.0</ele><time>2016-12-22T12:36:13Z</time></trkpt>
<trkpt lat="48.094565" lon="-4.334796"><ele>65.0</ele><time>2016-12-22T12:36:18Z</time></trkpt>
<trkpt lat="48.094649" lon="-4.334821"><ele>66.0</ele><time>2016-12-22T12:36:23Z</time></trkpt>
<trkpt lat="48.094734" lon="-4.334844"><ele>65.0</ele><time>2016-12-22T12:36:28Z</time></trkpt>
<trkpt lat="48.094803" lon="-4.334925"><ele>64.0</ele><time>2016-12-22T12:36:34Z</time></trkpt>
<trkpt lat="48.094734" lon="-4.335055"><ele>60.0</ele><time>2016-12-22T12:36:39Z</time></trkpt>
<trkpt lat="48.094677" lon="-4.335154"><ele>57.0</ele><time>2016-12-22T12:36:43Z</time></trkpt>
<trkpt lat="48.094623" lon="-4.335294"><ele>58.0</ele><time>2016-12-22T12:36:48Z</time></trkpt>
<trkpt lat="48.094576" lon="-4.335393"><ele>55.0</ele><time>2016-12-22T12:36:54Z</time></trkpt>
<trkpt lat="48.094563" lon="-4.335511"><ele>119.0</ele><time>2016-12-22T12:37:01Z</time></trkpt>
<trkpt lat="48.094547" lon="-4.335628"><ele>66.0</ele><time>2016-12-22T12:37:06Z</time></trkpt>
<trkpt lat="48.094505" lon="-4.335771"><ele>62.0</ele><time>2016-12-22T12:37:11Z</time></trkpt>
<trkpt lat="48.094470" lon="-4.335894"><ele>60.0</ele><time>2016-12-22T12:37:17Z</time></trkpt>
<trkpt lat="48.094444" lon="-4.336010"><ele>59.0</ele><time>2016-12-22T12:37:22Z</time></trkpt>
<trkpt lat="48.094425" lon="-4.336138"><ele>55.0</ele><time>2016-12-22T12:37:29Z</time></trkpt>
<trkpt lat="48.094390" lon="-4.336262"><ele>51.0</ele><time>2016-12-22T12:37:36Z</time></trkpt>
<trkpt lat="48.094351" lon="-4.336366"><ele>49.0</ele><time>2016-12-22T12:37:40Z</time></trkpt>
<trkpt lat="48.094325" lon="-4.336488"><ele>57.0</ele><time>2016-12-22T12:37:48Z</time></trkpt>
<trkpt lat="48.094339" lon="-4.336616"><ele>56.0</ele><time>2016-12-22T12:38:01Z</time></trkpt>
<trkpt lat="48.094394" lon="-4.336718"><ele>55.0</ele><time>2016-12-22T12:38:08Z</time></trkpt>
<trkpt lat="48.094425" lon="-4.336812"><ele>55.0</ele><time>2016-12-22T12:38:13Z</time></trkpt>
<trkpt lat="48.094470" lon="-4.336921"><ele>57.0</ele><time>2016-12-22T12:38:19Z</time></trkpt>
<trkpt lat="48.094516" lon="-4.337023"><ele>55.0</ele><time>2016-12-22T12:38:24Z</time></trkpt>
<trkpt lat="48.094578" lon="-4.337119"><ele>59.0</ele><time>2016-12-22T12:38:31Z</time></trkpt>
<trkpt lat="48.094646" lon="-4.337145"><ele>61.0</ele><time>2016-12-22T12:38:35Z</time></trkpt>
<trkpt lat="48.094720" lon="-4.337181"><ele>63.0</ele><time>2016-12-22T12:38:39Z</time></trkpt>
<trkpt lat="48.094793" lon="-4.337198"><ele>62.0</ele><time>2016-12-22T12:38:43Z</time></trkpt>
<trkpt lat="48.094895" lon="-4.337307"><ele>62.0</ele><time>2016-12-22T12:38:48Z</time></trkpt>
<trkpt lat="48.094993" lon="-4.337391"><ele>62.0</ele><time>2016-12-22T12:38:52Z</time></trkpt>
<trkpt lat="48.094982" lon="-4.337513"><ele>63.0</ele><time>2016-12-22T12:39:03Z</time></trkpt>
<trkpt lat="48.095043" lon="-4.337610"><ele>65.0</ele><time>2016-12-22T12:39:13Z</time></trkpt>
<trkpt lat="48.095135" lon="-4.337629"><ele>66.0</ele><time>2016-12-22T12:39:17Z</time></trkpt>
<trkpt lat="48.095226" lon="-4.337703"><ele>63.0</ele><time>2016-12-22T12:39:22Z</time></trkpt>
<trkpt lat="48.095298" lon="-4.337737"><ele>63.0</ele><time>2016-12-22T12:39:27Z</time></trkpt>
<trkpt lat="48.095385" lon="-4.337741"><ele>60.0</ele><time>2016-12-22T12:39:34Z</time></trkpt>
<trkpt lat="48.095461" lon="-4.337804"><ele>63.0</ele><time>2016-12-22T12:39:39Z</time></trkpt>
<trkpt lat="48.095511" lon="-4.337870"><ele>65.0</ele><time>2016-12-22T12:39:44Z</time></trkpt>
<trkpt lat="48.095564" lon="-4.337950"><ele>64.0</ele><time>2016-12-22T12:39:49Z</time></trkpt>
<trkpt lat="48.095601" lon="-4.338062"><ele>62.0</ele><time>2016-12-22T12:39:53Z</time></trkpt>
<trkpt lat="48.095683" lon="-4.338139"><ele>62.0</ele><time>2016-12-22T12:39:58Z</time></trkpt>
<trkpt lat="48.095748" lon="-4.338180"><ele>62.0</ele><time>2016-12-22T12:40:03Z</time></trkpt>
<trkpt lat="48.095828" lon="-4.338228"><ele>61.0</ele><time>2016-12-22T12:40:07Z</time></trkpt>
<trkpt lat="48.095928" lon="-4.338290"><ele>61.0</ele><time>2016-12-22T12:40:12Z</time></trkpt>
<trkpt lat="48.095939" lon="-4.338418"><ele>60.0</ele><time>2016-12-22T12:40:20Z</time></trkpt>
<trkpt lat="48.095898" lon="-4.338518"><ele>60.0</ele><time>2016-12-22T12:40:24Z</time></trkpt>
<trkpt lat="48.095857" lon="-4.338625"><ele>60.0</ele><time>2016-12-22T12:40:30Z</time></trkpt>
<trkpt lat="48.095854" lon="-4.338762"><ele>63.0</ele><time>2016-12-22T12:40:35Z</time></trkpt>
<trkpt lat="48.095817" lon="-4.338934"><ele>68.0</ele><time>2016-12-22T12:40:40Z</time></trkpt>
<trkpt lat="48.095784" lon="-4.339052"><ele>62.0</ele><time>2016-12-22T12:40:49Z</time></trkpt>
<trkpt lat="48.095774" lon="-4.339175"><ele>62.0</ele><time>2016-12-22T12:40:54Z</time></trkpt>
<trkpt lat="48.095754" lon="-4.339301"><ele>58.0</ele><time>2016-12-22T12:41:01Z</time></trkpt>
<trkpt lat="48.095704" lon="-4.339408"><ele>61.0</ele><time>2016-12-22T12:41:06Z</time></trkpt>
<trkpt lat="48.095654" lon="-4.339499"><ele>61.0</ele><time>2016-12-22T12:41:12Z</time></trkpt>
<trkpt lat="48.095623" lon="-4.339633"><ele>62.0</ele><time>2016-12-22T12:41:16Z</time></trkpt>
<trkpt lat="48.095629" lon="-4.339748"><ele>64.0</ele><time>2016-12-22T12:41:21Z</time></trkpt>
<trkpt lat="48.095660" lon="-4.339859"><ele>63.0</ele><time>2016-12-22T12:41:27Z</time></trkpt>
<trkpt lat="48.095658" lon="-4.339992"><ele>68.0</ele><time>2016-12-22T12:41:34Z</time></trkpt>
<trkpt lat="48.095710" lon="-4.340072"><ele>69.0</ele><time>2016-12-22T12:41:38Z</time></trkpt>
<trkpt lat="48.095768" lon="-4.340171"><ele>69.0</ele><time>2016-12-22T12:41:44Z</time></trkpt>
<trkpt lat="48.095753" lon="-4.340298"><ele>64.0</ele><time>2016-12-22T12:41:50Z</time></trkpt>
<trkpt lat="48.095706" lon="-4.340402"><ele>61.0</ele><time>2016-12-22T12:41:56Z</time></trkpt>
<trkpt lat="48.095737" lon="-4.340526"><ele>62.0</ele><time>2016-12-22T12:42:05Z</time></trkpt>
<trkpt lat="48.095721" lon="-4.340636"><ele>60.0</ele><time>2016-12-22T12:42:14Z</time></trkpt>
<trkpt lat="48.095734" lon="-4.340752"><ele>58.0</ele><time>2016-12-22T12:42:20Z</time></trkpt>
<trkpt lat="48.095725" lon="-4.340925"><ele>57.0</ele><time>2016-12-22T12:42:25Z</time></trkpt>
<trkpt lat="48.095731" lon="-4.341042"><ele>57.0</ele><time>2016-12-22T12:42:31Z</time></trkpt>
<trkpt lat="48.095721" lon="-4.341140"><ele>55.0</ele><time>2016-12-22T12:42:35Z</time></trkpt>
<trkpt lat="48.095686" lon="-4.341246"><ele>53.0</ele><time>2016-12-22T12:42:40Z</time></trkpt>
<trkpt lat="48.095690" lon="-4.341374"><ele>50.0</ele><time>2016-12-22T12:42:46Z</time></trkpt>
<trkpt lat="48.095714" lon="-4.341494"><ele>52.0</ele><time>2016-12-22T12:42:51Z</time></trkpt>
<trkpt lat="48.095790" lon="-4.341581"><ele>56.0</ele><time>2016-12-22T12:42:56Z</time></trkpt>
<trkpt lat="48.095808" lon="-4.341685"><ele>58.0</ele><time>2016-12-22T12:43:06Z</time></trkpt>
<trkpt lat="48.096001" lon="-4.341752"><ele>57.0</ele><time>2016-12-22T12:43:10Z</time></trkpt>
<trkpt lat="48.096128" lon="-4.341802"><ele>58.0</ele><time>2016-12-22T12:43:15Z</time></trkpt>
<trkpt lat="48.096215" lon="-4.341858"><ele>62.0</ele><time>2016-12-22T12:43:20Z</time></trkpt>
<trkpt lat="48.096307" lon="-4.341892"><ele>63.0</ele><time>2016-12-22T12:43:25Z</time></trkpt>
<trkpt lat="48.096368" lon="-4.341961"><ele>62.0</ele><time>2016-12-22T12:43:30Z</time></trkpt>
<trkpt lat="48.096441" lon="-4.342025"><ele>61.0</ele><time>2016-12-22T12:43:36Z</time></trkpt>
<trkpt lat="48.096528" lon="-4.342072"><ele>59.0</ele><time>2016-12-22T12:43:41Z</time></trkpt>
<trkpt lat="48.096586" lon="-4.342155"><ele>56.0</ele><time>2016-12-22T12:43:47Z</time></trkpt>
<trkpt lat="48.096656" lon="-4.342218"><ele>54.0</ele><time>2016-12-22T12:43:53Z</time></trkpt>
<trkpt lat="48.096729" lon="-4.342263"><ele>59.0</ele><time>2016-12-22T12:43:58Z</time></trkpt>
<trkpt lat="48.096806" lon="-4.342326"><ele>56.0</ele><time>2016-12-22T12:44:03Z</time></trkpt>
<trkpt lat="48.096856" lon="-4.342413"><ele>85.0</ele><time>2016-12-22T12:44:08Z</time></trkpt>
<trkpt lat="48.096918" lon="-4.342483"><ele>60.0</ele><time>2016-12-22T12:44:13Z</time></trkpt>
<trkpt lat="48.096989" lon="-4.342542"><ele>53.0</ele><time>2016-12-22T12:44:18Z</time></trkpt>
<trkpt lat="48.097058" lon="-4.342611"><ele>50.0</ele><time>2016-12-22T12:44:24Z</time></trkpt>
<trkpt lat="48.097107" lon="-4.342502"><ele>52.0</ele><time>2016-12-22T12:44:33Z</time></trkpt>
<trkpt lat="48.097148" lon="-4.342399"><ele>55.0</ele><time>2016-12-22T12:44:38Z</time></trkpt>
<trkpt lat="48.097192" lon="-4.342301"><ele>51.0</ele><time>2016-12-22T12:44:45Z</time></trkpt>
<trkpt lat="48.097238" lon="-4.342197"><ele>52.0</ele><time>2016-12-22T12:44:50Z</time></trkpt>
<trkpt lat="48.097279" lon="-4.342094"><ele>54.0</ele><time>2016-12-22T12:44:55Z</time></trkpt>
<trkpt lat="48.097335" lon="-4.342009"><ele>54.0</ele><time>2016-12-22T12:45:00Z</time></trkpt>
<trkpt lat="48.097379" lon="-4.341917"><ele>59.0</ele><time>2016-12-22T12:45:05Z</time></trkpt>
<trkpt lat="48.097400" lon="-4.341801"><ele>57.0</ele><time>2016-12-22T12:45:10Z</time></trkpt>
<trkpt lat="48.097443" lon="-4.341704"><ele>58.0</ele><time>2016-12-22T12:45:17Z</time></trkpt>
<trkpt lat="48.097481" lon="-4.341546"><ele>65.0</ele><time>2016-12-22T12:45:22Z</time></trkpt>
<trkpt lat="48.097514" lon="-4.341447"><ele>64.0</ele><time>2016-12-22T12:45:27Z</time></trkpt>
<trkpt lat="48.097576" lon="-4.341356"><ele>59.0</ele><time>2016-12-22T12:45:33Z</time></trkpt>
<trkpt lat="48.097615" lon="-4.341244"><ele>80.0</ele><time>2016-12-22T12:45:39Z</time></trkpt>
<trkpt lat="48.097667" lon="-4.341154"><ele>74.0</ele><time>2016-12-22T12:45:44Z</time></trkpt>
<trkpt lat="48.097690" lon="-4.341054"><ele>72.0</ele><time>2016-12-22T12:45:48Z</time></trkpt>
<trkpt lat="48.097704" lon="-4.340924"><ele>70.0</ele><time>2016-12-22T12:45:53Z</time></trkpt>
<trkpt lat="48.097731" lon="-4.340810"><ele>67.0</ele><time>2016-12-22T12:45:59Z</time></trkpt>
<trkpt lat="48.097776" lon="-4.340705"><ele>67.0</ele><time>2016-12-22T12:46:05Z</time></trkpt>
<trkpt lat="48.097774" lon="-4.340592"><ele>67.0</ele><time>2016-12-22T12:46:10Z</time></trkpt>
<trkpt lat="48.097768" lon="-4.340480"><ele>65.0</ele><time>2016-12-22T12:46:14Z</time></trkpt>
<trkpt lat="48.097798" lon="-4.340357"><ele>64.0</ele><time>2016-12-22T12:46:21Z</time></trkpt>
<trkpt lat="48.097831" lon="-4.340244"><ele>63.0</ele><time>2016-12-22T12:46:27Z</time></trkpt>
<trkpt lat="48.097872" lon="-4.340126"><ele>62.0</ele><time>2016-12-22T12:46:33Z</time></trkpt>
<trkpt lat="48.097908" lon="-4.340022"><ele>59.0</ele><time>2016-12-22T12:46:39Z</time></trkpt>
<trkpt lat="48.097946" lon="-4.339927"><ele>60.0</ele><time>2016-12-22T12:46:44Z</time></trkpt>
<trkpt lat="48.097983" lon="-4.339827"><ele>63.0</ele><time>2016-12-22T12:46:48Z</time></trkpt>
<trkpt lat="48.098061" lon="-4.339767"><ele>76.0</ele><time>2016-12-22T12:46:54Z</time></trkpt>
<trkpt lat="48.098113" lon="-4.339680"><ele>113.0</ele><time>2016-12-22T12:46:59Z</time></trkpt>
<trkpt lat="48.098174" lon="-4.339610"><ele>77.0</ele><time>2016-12-22T12:47:04Z</time></trkpt>
<trkpt lat="48.098232" lon="-4.339575"><ele>73.0</ele><time>2016-12-22T12:47:08Z</time></trkpt>
<trkpt lat="48.098311" lon="-4.339521"><ele>67.0</ele><time>2016-12-22T12:47:15Z</time></trkpt>
<trkpt lat="48.098395" lon="-4.339514"><ele>62.0</ele><time>2016-12-22T12:47:20Z</time></trkpt>
<trkpt lat="48.098481" lon="-4.339536"><ele>60.0</ele><time>2016-12-22T12:47:28Z</time></trkpt>
<trkpt lat="48.098543" lon="-4.339560"><ele>58.0</ele><time>2016-12-22T12:47:33Z</time></trkpt>
<trkpt lat="48.098621" lon="-4.339643"><ele>57.0</ele><time>2016-12-22T12:47:38Z</time></trkpt>
<trkpt lat="48.098700" lon="-4.339696"><ele>56.0</ele><time>2016-12-22T12:47:45Z</time></trkpt>
<trkpt lat="48.098767" lon="-4.339774"><ele>52.0</ele><time>2016-12-22T12:47:52Z</time></trkpt>
<trkpt lat="48.098840" lon="-4.339833"><ele>51.0</ele><time>2016-12-22T12:47:57Z</time></trkpt>
<trkpt lat="48.098913" lon="-4.339904"><ele>50.0</ele><time>2016-12-22T12:48:03Z</time></trkpt>
<trkpt lat="48.098982" lon="-4.339981"><ele>52.0</ele><time>2016-12-22T12:48:10Z</time></trkpt>
<trkpt lat="48.099046" lon="-4.340035"><ele>52.0</ele><time>2016-12-22T12:48:15Z</time></trkpt>
<trkpt lat="48.099130" lon="-4.340082"><ele>52.0</ele><time>2016-12-22T12:48:20Z</time></trkpt>
<trkpt lat="48.099192" lon="-4.340120"><ele>54.0</ele><time>2016-12-22T12:48:26Z</time></trkpt>
<trkpt lat="48.099262" lon="-4.340168"><ele>56.0</ele><time>2016-12-22T12:48:30Z</time></trkpt>
<trkpt lat="48.099333" lon="-4.340210"><ele>74.0</ele><time>2016-12-22T12:48:35Z</time></trkpt>
<trkpt lat="48.099393" lon="-4.340296"><ele>66.0</ele><time>2016-12-22T12:48:41Z</time></trkpt>
<trkpt lat="48.099465" lon="-4.340362"><ele>60.0</ele><time>2016-12-22T12:48:47Z</time></trkpt>
<trkpt lat="48.099538" lon="-4.340422"><ele>68.0</ele><time>2016-12-22T12:48:53Z</time></trkpt>
<trkpt lat="48.099616" lon="-4.340487"><ele>62.0</ele><time>2016-12-22T12:48:59Z</time></trkpt>
<trkpt lat="48.099705" lon="-4.340503"><ele>60.0</ele><time>2016-12-22T12:51:03Z</time></trkpt>
<trkpt lat="48.099759" lon="-4.340599"><ele>57.0</ele><time>2016-12-22T12:51:10Z</time></trkpt>
<trkpt lat="48.099821" lon="-4.340675"><ele>56.0</ele><time>2016-12-22T12:51:16Z</time></trkpt>
<trkpt lat="48.099885" lon="-4.340742"><ele>58.0</ele><time>2016-12-22T12:51:22Z</time></trkpt>
<trkpt lat="48.099951" lon="-4.340819"><ele>60.0</ele><time>2016-12-22T12:51:28Z</time></trkpt>
<trkpt lat="48.100011" lon="-4.340896"><ele>57.0</ele><time>2016-12-22T12:51:34Z</time></trkpt>
<trkpt lat="48.100063" lon="-4.340992"><ele>62.0</ele><time>2016-12-22T12:51:41Z</time></trkpt>
<trkpt lat="48.100140" lon="-4.341033"><ele>62.0</ele><time>2016-12-22T12:51:47Z</time></trkpt>
<trkpt lat="48.100212" lon="-4.341066"><ele>62.0</ele><time>2016-12-22T12:51:52Z</time></trkpt>
<trkpt lat="48.100305" lon="-4.341110"><ele>68.0</ele><time>2016-12-22T12:51:56Z</time></trkpt>
<trkpt lat="48.100354" lon="-4.341155"><ele>75.0</ele><time>2016-12-22T12:52:00Z</time></trkpt>
<trkpt lat="48.100418" lon="-4.341214"><ele>83.0</ele><time>2016-12-22T12:52:04Z</time></trkpt>
<trkpt lat="48.100477" lon="-4.341288"><ele>86.0</ele><time>2016-12-22T12:52:08Z</time></trkpt>
<trkpt lat="48.100525" lon="-4.341388"><ele>80.0</ele><time>2016-12-22T12:52:14Z</time></trkpt>
<trkpt lat="48.100527" lon="-4.341513"><ele>74.0</ele><time>2016-12-22T12:52:20Z</time></trkpt>
<trkpt lat="48.100449" lon="-4.341601"><ele>67.0</ele><time>2016-12-22T12:52:25Z</time></trkpt>
<trkpt lat="48.100395" lon="-4.341677"><ele>64.0</ele><time>2016-12-22T12:52:30Z</time></trkpt>
<trkpt lat="48.100353" lon="-4.341779"><ele>62.0</ele><time>2016-12-22T12:52:36Z</time></trkpt>
<trkpt lat="48.100295" lon="-4.341842"><ele>69.0</ele><time>2016-12-22T12:52:42Z</time></trkpt>
<trkpt lat="48.100251" lon="-4.341943"><ele>65.0</ele><time>2016-12-22T12:52:46Z</time></trkpt>
<trkpt lat="48.100230" lon="-4.342049"><ele>68.0</ele><time>2016-12-22T12:52:51Z</time></trkpt>
<trkpt lat="48.100220" lon="-4.342173"><ele>65.0</ele><time>2016-12-22T12:52:55Z</time></trkpt>
<trkpt lat="48.100200" lon="-4.342326"><ele>64.0</ele><time>2016-12-22T12:53:00Z</time></trkpt>
<trkpt lat="48.100175" lon="-4.342449"><ele>78.0</ele><time>2016-12-22T12:53:07Z</time></trkpt>
<trkpt lat="48.100199" lon="-4.342564"><ele>80.0</ele><time>2016-12-22T12:53:23Z</time></trkpt>
<trkpt lat="48.100187" lon="-4.342684"><ele>66.0</ele><time>2016-12-22T12:53:29Z</time></trkpt>
<trkpt lat="48.100212" lon="-4.342787"><ele>68.0</ele><time>2016-12-22T12:53:34Z</time></trkpt>
<trkpt lat="48.100233" lon="-4.342891"><ele>61.0</ele><time>2016-12-22T12:53:38Z</time></trkpt>
<trkpt lat="48.100268" lon="-4.343008"><ele>61.0</ele><time>2016-12-22T12:53:45Z</time></trkpt>
<trkpt lat="48.100344" lon="-4.343033"><ele>60.0</ele><time>2016-12-22T12:53:50Z</time></trkpt>
<trkpt lat="48.100413" lon="-4.343050"><ele>60.0</ele><time>2016-12-22T12:53:54Z</time></trkpt>
<trkpt lat="48.100493" lon="-4.343072"><ele>58.0</ele><time>2016-12-22T12:53:59Z</time></trkpt>
<trkpt lat="48.100569" lon="-4.343078"><ele>56.0</ele><time>2016-12-22T12:54:08Z</time></trkpt>
<trkpt lat="48.100656" lon="-4.343112"><ele>57.0</ele><time>2016-12-22T12:54:12Z</time></trkpt>
<trkpt lat="48.100740" lon="-4.343155"><ele>58.0</ele><time>2016-12-22T12:54:17Z</time></trkpt>
<trkpt lat="48.100817" lon="-4.343192"><ele>62.0</ele><time>2016-12-22T12:54:21Z</time></trkpt>
<trkpt lat="48.100895" lon="-4.343264"><ele>62.0</ele><time>2016-12-22T12:54:25Z</time></trkpt>
<trkpt lat="48.100908" lon="-4.343390"><ele>61.0</ele><time>2016-12-22T12:54:30Z</time></trkpt>
<trkpt lat="48.100919" lon="-4.343516"><ele>61.0</ele><time>2016-12-22T12:54:35Z</time></trkpt>
<trkpt lat="48.100949" lon="-4.343630"><ele>56.0</ele><time>2016-12-22T12:54:42Z</time></trkpt>
<trkpt lat="48.100974" lon="-4.343756"><ele>57.0</ele><time>2016-12-22T12:54:48Z</time></trkpt>
<trkpt lat="48.101000" lon="-4.343873"><ele>58.0</ele><time>2016-12-22T12:54:54Z</time></trkpt>
<trkpt lat="48.101026" lon="-4.343995"><ele>60.0</ele><time>2016-12-22T12:55:01Z</time></trkpt>
<trkpt lat="48.101017" lon="-4.344106"><ele>59.0</ele><time>2016-12-22T12:55:09Z</time></trkpt>
<trkpt lat="48.100957" lon="-4.344229"><ele>57.0</ele><time>2016-12-22T12:55:14Z</time></trkpt>
<trkpt lat="48.100912" lon="-4.344324"><ele>59.0</ele><time>2016-12-22T12:55:18Z</time></trkpt>
<trkpt lat="48.100851" lon="-4.344437"><ele>60.0</ele><time>2016-12-22T12:55:23Z</time></trkpt>
<trkpt lat="48.100801" lon="-4.344524"><ele>61.0</ele><time>2016-12-22T12:55:27Z</time></trkpt>
<trkpt lat="48.100754" lon="-4.344634"><ele>60.0</ele><time>2016-12-22T12:55:34Z</time></trkpt>
<trkpt lat="48.100704" lon="-4.344738"><ele>60.0</ele><time>2016-12-22T12:55:39Z</time></trkpt>
<trkpt lat="48.100660" lon="-4.344841"><ele>60.0</ele><time>2016-12-22T12:55:44Z</time></trkpt>
<trkpt lat="48.100611" lon="-4.344962"><ele>58.0</ele><time>2016-12-22T12:55:49Z</time></trkpt>
<trkpt lat="48.100593" lon="-4.345080"><ele>58.0</ele><time>2016-12-22T12:55:55Z</time></trkpt>
<trkpt lat="48.100589" lon="-4.345197"><ele>59.0</ele><time>2016-12-22T12:56:02Z</time></trkpt>
<trkpt lat="48.100582" lon="-4.345328"><ele>59.0</ele><time>2016-12-22T12:56:08Z</time></trkpt>
<trkpt lat="48.100603" lon="-4.345449"><ele>57.0</ele><time>2016-12-22T12:56:14Z</time></trkpt>
<trkpt lat="48.100609" lon="-4.345564"><ele>58.0</ele><time>2016-12-22T12:56:19Z</time></trkpt>
<trkpt lat="48.100628" lon="-4.345677"><ele>57.0</ele><time>2016-12-22T12:56:24Z</time></trkpt>
<trkpt lat="48.100634" lon="-4.345802"><ele>56.0</ele><time>2016-12-22T12:56:30Z</time></trkpt>
<trkpt lat="48.100641" lon="-4.345923"><ele>57.0</ele><time>2016-12-22T12:56:36Z</time></trkpt>
<trkpt lat="48.100647" lon="-4.346052"><ele>57.0</ele><time>2016-12-22T12:56:42Z</time></trkpt>
<trkpt lat="48.100636" lon="-4.346163"><ele>56.0</ele><time>2016-12-22T12:56:46Z</time></trkpt>
<trkpt lat="48.100650" lon="-4.346279"><ele>60.0</ele><time>2016-12-22T12:56:51Z</time></trkpt>
<trkpt lat="48.100685" lon="-4.346398"><ele>62.0</ele><time>2016-12-22T12:57:02Z</time></trkpt>
<trkpt lat="48.100760" lon="-4.346426"><ele>61.0</ele><time>2016-12-22T12:57:07Z</time></trkpt>
<trkpt lat="48.100823" lon="-4.346504"><ele>62.0</ele><time>2016-12-22T12:57:12Z</time></trkpt>
<trkpt lat="48.100835" lon="-4.346626"><ele>56.0</ele><time>2016-12-22T12:57:17Z</time></trkpt>
<trkpt lat="48.100853" lon="-4.346744"><ele>57.0</ele><time>2016-12-22T12:57:23Z</time></trkpt>
<trkpt lat="48.100902" lon="-4.346850"><ele>59.0</ele><time>2016-12-22T12:57:28Z</time></trkpt>
<trkpt lat="48.100947" lon="-4.346958"><ele>61.0</ele><time>2016-12-22T12:57:33Z</time></trkpt>
<trkpt lat="48.100997" lon="-4.347055"><ele>60.0</ele><time>2016-12-22T12:57:37Z</time></trkpt>
<trkpt lat="48.101085" lon="-4.347081"><ele>58.0</ele><time>2016-12-22T12:57:42Z</time></trkpt>
<trkpt lat="48.101162" lon="-4.347121"><ele>58.0</ele><time>2016-12-22T12:57:50Z</time></trkpt>
<trkpt lat="48.101213" lon="-4.347190"><ele>61.0</ele><time>2016-12-22T12:57:54Z</time></trkpt>
<trkpt lat="48.101277" lon="-4.347275"><ele>62.0</ele><time>2016-12-22T12:58:02Z</time></trkpt>
<trkpt lat="48.101370" lon="-4.347283"><ele>61.0</ele><time>2016-12-22T12:58:06Z</time></trkpt>
<trkpt lat="48.101452" lon="-4.347284"><ele>62.0</ele><time>2016-12-22T12:58:14Z</time></trkpt>
<trkpt lat="48.101519" lon="-4.347350"><ele>61.0</ele><time>2016-12-22T12:58:18Z</time></trkpt>
<trkpt lat="48.101602" lon="-4.347402"><ele>62.0</ele><time>2016-12-22T12:58:23Z</time></trkpt>
<trkpt lat="48.101682" lon="-4.347432"><ele>63.0</ele><time>2016-12-22T12:58:28Z</time></trkpt>
<trkpt lat="48.101731" lon="-4.347515"><ele>64.0</ele><time>2016-12-22T12:58:33Z</time></trkpt>
<trkpt lat="48.101805" lon="-4.347580"><ele>67.0</ele><time>2016-12-22T12:58:37Z</time></trkpt>
<trkpt lat="48.101852" lon="-4.347667"><ele>66.0</ele><time>2016-12-22T12:58:42Z</time></trkpt>
<trkpt lat="48.101932" lon="-4.347704"><ele>66.0</ele><time>2016-12-22T12:58:47Z</time></trkpt>
<trkpt lat="48.102009" lon="-4.347765"><ele>65.0</ele><time>2016-12-22T12:58:54Z</time></trkpt>
<trkpt lat="48.102040" lon="-4.347889"><ele>63.0</ele><time>2016-12-22T12:59:02Z</time></trkpt>
<trkpt lat="48.102086" lon="-4.348000"><ele>61.0</ele><time>2016-12-22T12:59:09Z</time></trkpt>
<trkpt lat="48.102085" lon="-4.348134"><ele>59.0</ele><time>2016-12-22T12:59:15Z</time></trkpt>
<trkpt lat="48.102083" lon="-4.348253"><ele>60.0</ele><time>2016-12-22T12:59:20Z</time></trkpt>
<trkpt lat="48.102117" lon="-4.348357"><ele>59.0</ele><time>2016-12-22T12:59:24Z</time></trkpt>
<trkpt lat="48.102149" lon="-4.348476"><ele>59.0</ele><time>2016-12-22T12:59:29Z</time></trkpt>
<trkpt lat="48.102166" lon="-4.348596"><ele>61.0</ele><time>2016-12-22T12:59:35Z</time></trkpt>
<trkpt lat="48.102150" lon="-4.348731"><ele>60.0</ele><time>2016-12-22T12:59:40Z</time></trkpt>
<trkpt lat="48.102131" lon="-4.348855"><ele>56.0</ele><time>2016-12-22T12:59:46Z</time></trkpt>
<trkpt lat="48.102104" lon="-4.348975"><ele>53.0</ele><time>2016-12-22T12:59:51Z</time></trkpt>
<trkpt lat="48.102139" lon="-4.349089"><ele>51.0</ele><time>2016-12-22T13:00:01Z</time></trkpt>
<trkpt lat="48.102118" lon="-4.349210"><ele>49.0</ele><time>2016-12-22T13:00:07Z</time></trkpt>
<trkpt lat="48.102125" lon="-4.349334"><ele>51.0</ele><time>2016-12-22T13:00:14Z</time></trkpt>
<trkpt lat="48.102117" lon="-4.349455"><ele>49.0</ele><time>2016-12-22T13:00:20Z</time></trkpt>
<trkpt lat="48.102123" lon="-4.349587"><ele>48.0</ele><time>2016-12-22T13:00:26Z</time></trkpt>
<trkpt lat="48.102134" lon="-4.349717"><ele>47.0</ele><time>2016-12-22T13:00:32Z</time></trkpt>
<trkpt lat="48.102127" lon="-4.349837"><ele>45.0</ele><time>2016-12-22T13:00:38Z</time></trkpt>
<trkpt lat="48.102146" lon="-4.349956"><ele>48.0</ele><time>2016-12-22T13:00:43Z</time></trkpt>
<trkpt lat="48.102157" lon="-4.350071"><ele>46.0</ele><time>2016-12-22T13:00:48Z</time></trkpt>
<trkpt lat="48.102168" lon="-4.350189"><ele>48.0</ele><time>2016-12-22T13:00:53Z</time></trkpt>
<trkpt lat="48.102178" lon="-4.350307"><ele>49.0</ele><time>2016-12-22T13:00:58Z</time></trkpt>
<trkpt lat="48.102190" lon="-4.350414"><ele>50.0</ele><time>2016-12-22T13:01:03Z</time></trkpt>
<trkpt lat="48.102192" lon="-4.350541"><ele>49.0</ele><time>2016-12-22T13:01:09Z</time></trkpt>
<trkpt lat="48.102208" lon="-4.350669"><ele>49.0</ele><time>2016-12-22T13:01:15Z</time></trkpt>
<trkpt lat="48.102225" lon="-4.350792"><ele>51.0</ele><time>2016-12-22T13:01:21Z</time></trkpt>
<trkpt lat="48.102221" lon="-4.350908"><ele>50.0</ele><time>2016-12-22T13:01:27Z</time></trkpt>
<trkpt lat="48.102241" lon="-4.351027"><ele>51.0</ele><time>2016-12-22T13:01:33Z</time></trkpt>
<trkpt lat="48.102251" lon="-4.351144"><ele>49.0</ele><time>2016-12-22T13:01:38Z</time></trkpt>
<trkpt lat="48.102246" lon="-4.351256"><ele>48.0</ele><time>2016-12-22T13:01:44Z</time></trkpt>
<trkpt lat="48.102260" lon="-4.351377"><ele>48.0</ele><time>2016-12-22T13:01:49Z</time></trkpt>
<trkpt lat="48.102273" lon="-4.351500"><ele>48.0</ele><time>2016-12-22T13:01:55Z</time></trkpt>
<trkpt lat="48.102286" lon="-4.351617"><ele>51.0</ele><time>2016-12-22T13:02:00Z</time></trkpt>
<trkpt lat="48.102298" lon="-4.351735"><ele>50.0</ele><time>2016-12-22T13:02:05Z</time></trkpt>
<trkpt lat="48.102306" lon="-4.351869"><ele>51.0</ele><time>2016-12-22T13:02:12Z</time></trkpt>
<trkpt lat="48.102331" lon="-4.351985"><ele>52.0</ele><time>2016-12-22T13:02:18Z</time></trkpt>
<trkpt lat="48.102345" lon="-4.352097"><ele>52.0</ele><time>2016-12-22T13:02:23Z</time></trkpt>
<trkpt lat="48.102358" lon="-4.352222"><ele>53.0</ele><time>2016-12-22T13:02:29Z</time></trkpt>
<trkpt lat="48.102377" lon="-4.352330"><ele>52.0</ele><time>2016-12-22T13:02:35Z</time></trkpt>
<trkpt lat="48.102391" lon="-4.352448"><ele>51.0</ele><time>2016-12-22T13:02:41Z</time></trkpt>
<trkpt lat="48.102430" lon="-4.352564"><ele>51.0</ele><time>2016-12-22T13:02:48Z</time></trkpt>
<trkpt lat="48.102448" lon="-4.352681"><ele>51.0</ele><time>2016-12-22T13:02:53Z</time></trkpt>
<trkpt lat="48.102465" lon="-4.352799"><ele>51.0</ele><time>2016-12-22T13:02:59Z</time></trkpt>
<trkpt lat="48.102503" lon="-4.352906"><ele>54.0</ele><time>2016-12-22T13:03:09Z</time></trkpt>
<trkpt lat="48.102544" lon="-4.353003"><ele>54.0</ele><time>2016-12-22T13:03:14Z</time></trkpt>
<trkpt lat="48.102591" lon="-4.353102"><ele>55.0</ele><time>2016-12-22T13:03:19Z</time></trkpt>
<trkpt lat="48.102633" lon="-4.353204"><ele>53.0</ele><time>2016-12-22T13:03:24Z</time></trkpt>
<trkpt lat="48.102663" lon="-4.353313"><ele>53.0</ele><time>2016-12-22T13:03:30Z</time></trkpt>
<trkpt lat="48.102660" lon="-4.353444"><ele>54.0</ele><time>2016-12-22T13:03:35Z</time></trkpt>
<trkpt lat="48.102678" lon="-4.353561"><ele>53.0</ele><time>2016-12-22T13:03:41Z</time></trkpt>
<trkpt lat="48.102715" lon="-4.353682"><ele>53.0</ele><time>2016-12-22T13:03:48Z</time></trkpt>
<trkpt lat="48.102739" lon="-4.353801"><ele>55.0</ele><time>2016-12-22T13:03:53Z</time></trkpt>
<trkpt lat="48.102761" lon="-4.353913"><ele>53.0</ele><time>2016-12-22T13:03:59Z</time></trkpt>
<trkpt lat="48.102786" lon="-4.354040"><ele>52.0</ele><time>2016-12-22T13:04:05Z</time></trkpt>
<trkpt lat="48.102824" lon="-4.354144"><ele>51.0</ele><time>2016-12-22T13:04:11Z</time></trkpt>
<trkpt lat="48.102862" lon="-4.354258"><ele>52.0</ele><time>2016-12-22T13:04:16Z</time></trkpt>
<trkpt lat="48.102914" lon="-4.354341"><ele>51.0</ele><time>2016-12-22T13:04:21Z</time></trkpt>
<trkpt lat="48.102968" lon="-4.354440"><ele>53.0</ele><time>2016-12-22T13:04:27Z</time></trkpt>
<trkpt lat="48.103034" lon="-4.354509"><ele>52.0</ele><time>2016-12-22T13:04:32Z</time></trkpt>
<trkpt lat="48.103110" lon="-4.354527"><ele>53.0</ele><time>2016-12-22T13:04:37Z</time></trkpt>
<trkpt lat="48.103177" lon="-4.354578"><ele>53.0</ele><time>2016-12-22T13:04:43Z</time></trkpt>
<trkpt lat="48.103252" lon="-4.354627"><ele>53.0</ele><time>2016-12-22T13:04:48Z</time></trkpt>
<trkpt lat="48.103320" lon="-4.354673"><ele>54.0</ele><time>2016-12-22T13:04:53Z</time></trkpt>
<trkpt lat="48.103398" lon="-4.354693"><ele>54.0</ele><time>2016-12-22T13:04:58Z</time></trkpt>
<trkpt lat="48.103479" lon="-4.354736"><ele>52.0</ele><time>2016-12-22T13:05:04Z</time></trkpt>
<trkpt lat="48.103562" lon="-4.354775"><ele>54.0</ele><time>2016-12-22T13:05:10Z</time></trkpt>
<trkpt lat="48.103625" lon="-4.354848"><ele>54.0</ele><time>2016-12-22T13:05:14Z</time></trkpt>
<trkpt lat="48.103694" lon="-4.354930"><ele>56.0</ele><time>2016-12-22T13:05:20Z</time></trkpt>
<trkpt lat="48.103768" lon="-4.355002"><ele>55.0</ele><time>2016-12-22T13:05:26Z</time></trkpt>
<trkpt lat="48.103833" lon="-4.355077"><ele>55.0</ele><time>2016-12-22T13:05:33Z</time></trkpt>
<trkpt lat="48.103880" lon="-4.355162"><ele>55.0</ele><time>2016-12-22T13:05:38Z</time></trkpt>
<trkpt lat="48.103953" lon="-4.355238"><ele>56.0</ele><time>2016-12-22T13:05:44Z</time></trkpt>
<trkpt lat="48.104028" lon="-4.355303"><ele>54.0</ele><time>2016-12-22T13:05:50Z</time></trkpt>
<trkpt lat="48.104087" lon="-4.355398"><ele>53.0</ele><time>2016-12-22T13:05:57Z</time></trkpt>
<trkpt lat="48.104034" lon="-4.355497"><ele>54.0</ele><time>2016-12-22T13:06:03Z</time></trkpt>
<trkpt lat="48.104024" lon="-4.355614"><ele>54.0</ele><time>2016-12-22T13:06:11Z</time></trkpt>
<trkpt lat="48.104031" lon="-4.355733"><ele>59.0</ele><time>2016-12-22T13:06:24Z</time></trkpt>
<trkpt lat="48.103971" lon="-4.355822"><ele>59.0</ele><time>2016-12-22T13:06:40Z</time></trkpt>
<trkpt lat="48.103923" lon="-4.355934"><ele>62.0</ele><time>2016-12-22T13:06:48Z</time></trkpt>
<trkpt lat="48.103955" lon="-4.356065"><ele>66.0</ele><time>2016-12-22T13:06:53Z</time></trkpt>
<trkpt lat="48.103991" lon="-4.356174"><ele>69.0</ele><time>2016-12-22T13:07:00Z</time></trkpt>
<trkpt lat="48.104051" lon="-4.356261"><ele>69.0</ele><time>2016-12-22T13:07:07Z</time></trkpt>
<trkpt lat="48.104102" lon="-4.356361"><ele>68.0</ele><time>2016-12-22T13:07:14Z</time></trkpt>
<trkpt lat="48.104157" lon="-4.356459"><ele>68.0</ele><time>2016-12-22T13:07:21Z</time></trkpt>
<trkpt lat="48.104219" lon="-4.356547"><ele>69.0</ele><time>2016-12-22T13:07:28Z</time></trkpt>
<trkpt lat="48.104286" lon="-4.356636"><ele>69.0</ele><time>2016-12-22T13:07:35Z</time></trkpt>
<trkpt lat="48.104351" lon="-4.356712"><ele>69.0</ele><time>2016-12-22T13:07:40Z</time></trkpt>
<trkpt lat="48.104410" lon="-4.356809"><ele>69.0</ele><time>2016-12-22T13:07:47Z</time></trkpt>
<trkpt lat="48.104449" lon="-4.356945"><ele>68.0</ele><time>2016-12-22T13:07:51Z</time></trkpt>
<trkpt lat="48.104517" lon="-4.357045"><ele>68.0</ele><time>2016-12-22T13:07:56Z</time></trkpt>
<trkpt lat="48.104581" lon="-4.357139"><ele>67.0</ele><time>2016-12-22T13:08:04Z</time></trkpt>
<trkpt lat="48.104674" lon="-4.357196"><ele>69.0</ele><time>2016-12-22T13:08:08Z</time></trkpt>
<trkpt lat="48.104760" lon="-4.357272"><ele>65.0</ele><time>2016-12-22T13:08:13Z</time></trkpt>
<trkpt lat="48.104825" lon="-4.357354"><ele>70.0</ele><time>2016-12-22T13:08:19Z</time></trkpt>
<trkpt lat="48.104862" lon="-4.357461"><ele>72.0</ele><time>2016-12-22T13:08:26Z</time></trkpt>
<trkpt lat="48.104875" lon="-4.357574"><ele>71.0</ele><time>2016-12-22T13:08:31Z</time></trkpt>
<trkpt lat="48.104905" lon="-4.357676"><ele>70.0</ele><time>2016-12-22T13:08:36Z</time></trkpt>
<trkpt lat="48.104909" lon="-4.357772"><ele>71.0</ele><time>2016-12-22T13:08:42Z</time></trkpt>
<trkpt lat="48.104872" lon="-4.357865"><ele>67.0</ele><time>2016-12-22T13:08:46Z</time></trkpt>
<trkpt lat="48.104852" lon="-4.357986"><ele>66.0</ele><time>2016-12-22T13:08:54Z</time></trkpt>
<trkpt lat="48.104844" lon="-4.358117"><ele>104.0</ele><time>2016-12-22T13:08:59Z</time></trkpt>
<trkpt lat="48.104856" lon="-4.358227"><ele>76.0</ele><time>2016-12-22T13:09:03Z</time></trkpt>
<trkpt lat="48.104883" lon="-4.358352"><ele>70.0</ele><time>2016-12-22T13:09:09Z</time></trkpt>
<trkpt lat="48.104925" lon="-4.358478"><ele>68.0</ele><time>2016-12-22T13:09:14Z</time></trkpt>
<trkpt lat="48.104963" lon="-4.358587"><ele>66.0</ele><time>2016-12-22T13:09:20Z</time></trkpt>
<trkpt lat="48.105021" lon="-4.358670"><ele>68.0</ele><time>2016-12-22T13:09:25Z</time></trkpt>
<trkpt lat="48.105066" lon="-4.358779"><ele>69.0</ele><time>2016-12-22T13:09:31Z</time></trkpt>
<trkpt lat="48.105109" lon="-4.358867"><ele>69.0</ele><time>2016-12-22T13:09:36Z</time></trkpt>
<trkpt lat="48.105161" lon="-4.358956"><ele>70.0</ele><time>2016-12-22T13:09:41Z</time></trkpt>
<trkpt lat="48.105212" lon="-4.359063"><ele>71.0</ele><time>2016-12-22T13:09:46Z</time></trkpt>
<trkpt lat="48.105257" lon="-4.359166"><ele>73.0</ele><time>2016-12-22T13:09:51Z</time></trkpt>
<trkpt lat="48.105306" lon="-4.359266"><ele>72.0</ele><time>2016-12-22T13:09:57Z</time></trkpt>
<trkpt lat="48.105354" lon="-4.359380"><ele>71.0</ele><time>2016-12-22T13:10:03Z</time></trkpt>
<trkpt lat="48.105398" lon="-4.359495"><ele>72.0</ele><time>2016-12-22T13:10:09Z</time></trkpt>
<trkpt lat="48.105440" lon="-4.359613"><ele>71.0</ele><time>2016-12-22T13:10:16Z</time></trkpt>
<trkpt lat="48.105475" lon="-4.359722"><ele>69.0</ele><time>2016-12-22T13:10:22Z</time></trkpt>
<trkpt lat="48.105547" lon="-4.359772"><ele>74.0</ele><time>2016-12-22T13:10:28Z</time></trkpt>
<trkpt lat="48.105636" lon="-4.359773"><ele>77.0</ele><time>2016-12-22T13:10:33Z</time></trkpt>
<trkpt lat="48.105704" lon="-4.359736"><ele>76.0</ele><time>2016-12-22T13:10:37Z</time></trkpt>
<trkpt lat="48.105767" lon="-4.359687"><ele>74.0</ele><time>2016-12-22T13:10:41Z</time></trkpt>
<trkpt lat="48.105822" lon="-4.359599"><ele>74.0</ele><time>2016-12-22T13:10:47Z</time></trkpt>
<trkpt lat="48.105856" lon="-4.359494"><ele>79.0</ele><time>2016-12-22T13:11:00Z</time></trkpt>
<trkpt lat="48.105969" lon="-4.359463"><ele>82.0</ele><time>2016-12-22T13:11:05Z</time></trkpt>
<trkpt lat="48.106071" lon="-4.359449"><ele>80.0</ele><time>2016-12-22T13:11:09Z</time></trkpt>
<trkpt lat="48.106163" lon="-4.359457"><ele>79.0</ele><time>2016-12-22T13:11:13Z</time></trkpt>
<trkpt lat="48.106249" lon="-4.359445"><ele>79.0</ele><time>2016-12-22T13:11:17Z</time></trkpt>
<trkpt lat="48.106348" lon="-4.359448"><ele>105.0</ele><time>2016-12-22T13:11:21Z</time></trkpt>
<trkpt lat="48.106376" lon="-4.359573"><ele>78.0</ele><time>2016-12-22T13:11:29Z</time></trkpt>
<trkpt lat="48.106401" lon="-4.359693"><ele>76.0</ele><time>2016-12-22T13:11:34Z</time></trkpt>
<trkpt lat="48.106421" lon="-4.359809"><ele>77.0</ele><time>2016-12-22T13:11:39Z</time></trkpt>
<trkpt lat="48.106453" lon="-4.359913"><ele>76.0</ele><time>2016-12-22T13:11:46Z</time></trkpt>
<trkpt lat="48.106485" lon="-4.360024"><ele>75.0</ele><time>2016-12-22T13:11:51Z</time></trkpt>
<trkpt lat="48.106507" lon="-4.360147"><ele>73.0</ele><time>2016-12-22T13:11:57Z</time></trkpt>
<trkpt lat="48.106510" lon="-4.360278"><ele>71.0</ele><time>2016-12-22T13:12:03Z</time></trkpt>
<trkpt lat="48.106481" lon="-4.360403"><ele>70.0</ele><time>2016-12-22T13:12:10Z</time></trkpt>
<trkpt lat="48.106514" lon="-4.360505"><ele>72.0</ele><time>2016-12-22T13:12:19Z</time></trkpt>
<trkpt lat="48.106594" lon="-4.360555"><ele>73.0</ele><time>2016-12-22T13:12:24Z</time></trkpt>
<trkpt lat="48.106660" lon="-4.360641"><ele>72.0</ele><time>2016-12-22T13:12:34Z</time></trkpt>
<trkpt lat="48.106745" lon="-4.360682"><ele>70.0</ele><time>2016-12-22T13:12:43Z</time></trkpt>
<trkpt lat="48.106793" lon="-4.360789"><ele>73.0</ele><time>2016-12-22T13:12:50Z</time></trkpt>
<trkpt lat="48.106732" lon="-4.360887"><ele>70.0</ele><time>2016-12-22T13:13:10Z</time></trkpt>
<trkpt lat="48.106805" lon="-4.360955"><ele>73.0</ele><time>2016-12-22T13:13:15Z</time></trkpt>
<trkpt lat="48.106889" lon="-4.360967"><ele>71.0</ele><time>2016-12-22T13:13:24Z</time></trkpt>
<trkpt lat="48.106958" lon="-4.361024"><ele>72.0</ele><time>2016-12-22T13:13:29Z</time></trkpt>
<trkpt lat="48.107044" lon="-4.361062"><ele>72.0</ele><time>2016-12-22T13:13:37Z</time></trkpt>
<trkpt lat="48.107116" lon="-4.361123"><ele>70.0</ele><time>2016-12-22T13:13:47Z</time></trkpt>
<trkpt lat="48.107202" lon="-4.361130"><ele>74.0</ele><time>2016-12-22T13:13:56Z</time></trkpt>
<trkpt lat="48.107266" lon="-4.361217"><ele>70.0</ele><time>2016-12-22T13:14:39Z</time></trkpt>
<trkpt lat="48.107345" lon="-4.361268"><ele>69.0</ele><time>2016-12-22T13:14:46Z</time></trkpt>
<trkpt lat="48.107433" lon="-4.361309"><ele>68.0</ele><time>2016-12-22T13:14:51Z</time></trkpt>
<trkpt lat="48.107504" lon="-4.361354"><ele>69.0</ele><time>2016-12-22T13:14:55Z</time></trkpt>
<trkpt lat="48.107599" lon="-4.361391"><ele>88.0</ele><time>2016-12-22T13:15:00Z</time></trkpt>
<trkpt lat="48.107671" lon="-4.361450"><ele>76.0</ele><time>2016-12-22T13:15:07Z</time></trkpt>
<trkpt lat="48.107757" lon="-4.361480"><ele>77.0</ele><time>2016-12-22T13:15:12Z</time></trkpt>
<trkpt lat="48.107841" lon="-4.361501"><ele>69.0</ele><time>2016-12-22T13:15:23Z</time></trkpt>
<trkpt lat="48.107928" lon="-4.361501"><ele>68.0</ele><time>2016-12-22T13:15:32Z</time></trkpt>
<trkpt lat="48.108001" lon="-4.361535"><ele>66.0</ele><time>2016-12-22T13:15:38Z</time></trkpt>
<trkpt lat="48.108081" lon="-4.361546"><ele>65.0</ele><time>2016-12-22T13:15:43Z</time></trkpt>
<trkpt lat="48.108160" lon="-4.361583"><ele>67.0</ele><time>2016-12-22T13:15:49Z</time></trkpt>
<trkpt lat="48.108237" lon="-4.361604"><ele>68.0</ele><time>2016-12-22T13:16:04Z</time></trkpt>
<trkpt lat="48.108306" lon="-4.361690"><ele>63.0</ele><time>2016-12-22T13:16:11Z</time></trkpt>
<trkpt lat="48.108378" lon="-4.361738"><ele>65.0</ele><time>2016-12-22T13:16:23Z</time></trkpt>
<trkpt lat="48.108449" lon="-4.361784"><ele>67.0</ele><time>2016-12-22T13:16:29Z</time></trkpt>
<trkpt lat="48.108513" lon="-4.361857"><ele>67.0</ele><time>2016-12-22T13:16:34Z</time></trkpt>
<trkpt lat="48.108584" lon="-4.361907"><ele>68.0</ele><time>2016-12-22T13:16:40Z</time></trkpt>
<trkpt lat="48.108657" lon="-4.361957"><ele>69.0</ele><time>2016-12-22T13:16:45Z</time></trkpt>
<trkpt lat="48.108722" lon="-4.362025"><ele>64.0</ele><time>2016-12-22T13:16:56Z</time></trkpt>
<trkpt lat="48.108798" lon="-4.362048"><ele>64.0</ele><time>2016-12-22T13:17:01Z</time></trkpt>
<trkpt lat="48.108878" lon="-4.362073"><ele>62.0</ele><time>2016-12-22T13:17:07Z</time></trkpt>
<trkpt lat="48.108949" lon="-4.362134"><ele>65.0</ele><time>2016-12-22T13:17:12Z</time></trkpt>
<trkpt lat="48.109002" lon="-4.362223"><ele>64.0</ele><time>2016-12-22T13:17:18Z</time></trkpt>
<trkpt lat="48.109022" lon="-4.362345"><ele>62.0</ele><time>2016-12-22T13:17:25Z</time></trkpt>
<trkpt lat="48.109070" lon="-4.362456"><ele>63.0</ele><time>2016-12-22T13:17:32Z</time></trkpt>
<trkpt lat="48.109074" lon="-4.362587"><ele>67.0</ele><time>2016-12-22T13:17:40Z</time></trkpt>
<trkpt lat="48.109075" lon="-4.362700"><ele>67.0</ele><time>2016-12-22T13:17:46Z</time></trkpt>
<trkpt lat="48.109093" lon="-4.362815"><ele>67.0</ele><time>2016-12-22T13:17:51Z</time></trkpt>
<trkpt lat="48.109113" lon="-4.362933"><ele>70.0</ele><time>2016-12-22T13:17:57Z</time></trkpt>
<trkpt lat="48.109076" lon="-4.363048"><ele>72.0</ele><time>2016-12-22T13:18:06Z</time></trkpt>
<trkpt lat="48.109010" lon="-4.363110"><ele>73.0</ele><time>2016-12-22T13:18:11Z</time></trkpt>
<trkpt lat="48.108954" lon="-4.363209"><ele>74.0</ele><time>2016-12-22T13:18:17Z</time></trkpt>
<trkpt lat="48.108973" lon="-4.363336"><ele>75.0</ele><time>2016-12-22T13:18:24Z</time></trkpt>
<trkpt lat="48.109005" lon="-4.363439"><ele>76.0</ele><time>2016-12-22T13:18:29Z</time></trkpt>
<trkpt lat="48.109025" lon="-4.363557"><ele>75.0</ele><time>2016-12-22T13:18:35Z</time></trkpt>
<trkpt lat="48.109025" lon="-4.363676"><ele>76.0</ele><time>2016-12-22T13:18:41Z</time></trkpt>
<trkpt lat="48.108960" lon="-4.363755"><ele>76.0</ele><time>2016-12-22T13:18:47Z</time></trkpt>
<trkpt lat="48.108888" lon="-4.363817"><ele>79.0</ele><time>2016-12-22T13:18:53Z</time></trkpt>
<trkpt lat="48.108832" lon="-4.363916"><ele>80.0</ele><time>2016-12-22T13:19:02Z</time></trkpt>
<trkpt lat="48.108759" lon="-4.363994"><ele>81.0</ele><time>2016-12-22T13:19:13Z</time></trkpt>
<trkpt lat="48.108725" lon="-4.364103"><ele>81.0</ele><time>2016-12-22T13:19:23Z</time></trkpt>
<trkpt lat="48.108752" lon="-4.364216"><ele>84.0</ele><time>2016-12-22T13:19:29Z</time></trkpt>
<trkpt lat="48.108799" lon="-4.364325"><ele>79.0</ele><time>2016-12-22T13:19:37Z</time></trkpt>
<trkpt lat="48.108773" lon="-4.364436"><ele>79.0</ele><time>2016-12-22T13:19:42Z</time></trkpt>
<trkpt lat="48.108807" lon="-4.364541"><ele>79.0</ele><time>2016-12-22T13:19:49Z</time></trkpt>
<trkpt lat="48.108827" lon="-4.364667"><ele>77.0</ele><time>2016-12-22T13:19:57Z</time></trkpt>
<trkpt lat="48.108880" lon="-4.364776"><ele>76.0</ele><time>2016-12-22T13:20:08Z</time></trkpt>
<trkpt lat="48.108884" lon="-4.364895"><ele>74.0</ele><time>2016-12-22T13:20:17Z</time></trkpt>
<trkpt lat="48.108844" lon="-4.365007"><ele>75.0</ele><time>2016-12-22T13:20:23Z</time></trkpt>
<trkpt lat="48.108821" lon="-4.365123"><ele>76.0</ele><time>2016-12-22T13:20:28Z</time></trkpt>
<trkpt lat="48.108790" lon="-4.365238"><ele>75.0</ele><time>2016-12-22T13:20:34Z</time></trkpt>
<trkpt lat="48.108780" lon="-4.365353"><ele>74.0</ele><time>2016-12-22T13:20:40Z</time></trkpt>
<trkpt lat="48.108766" lon="-4.365476"><ele>76.0</ele><time>2016-12-22T13:20:46Z</time></trkpt>
<trkpt lat="48.108831" lon="-4.365551"><ele>74.0</ele><time>2016-12-22T13:20:51Z</time></trkpt>
<trkpt lat="48.108899" lon="-4.365609"><ele>69.0</ele><time>2016-12-22T13:20:57Z</time></trkpt>
<trkpt lat="48.108938" lon="-4.365728"><ele>68.0</ele><time>2016-12-22T13:21:05Z</time></trkpt>
<trkpt lat="48.108931" lon="-4.365859"><ele>68.0</ele><time>2016-12-22T13:21:11Z</time></trkpt>
<trkpt lat="48.108975" lon="-4.365961"><ele>72.0</ele><time>2016-12-22T13:21:18Z</time></trkpt>
<trkpt lat="48.108992" lon="-4.366086"><ele>71.0</ele><time>2016-12-22T13:21:25Z</time></trkpt>
<trkpt lat="48.109014" lon="-4.366205"><ele>70.0</ele><time>2016-12-22T13:21:31Z</time></trkpt>
<trkpt lat="48.109041" lon="-4.366318"><ele>70.0</ele><time>2016-12-22T13:21:36Z</time></trkpt>
<trkpt lat="48.109091" lon="-4.366421"><ele>68.0</ele><time>2016-12-22T13:21:44Z</time></trkpt>
<trkpt lat="48.109142" lon="-4.366528"><ele>64.0</ele><time>2016-12-22T13:21:51Z</time></trkpt>
<trkpt lat="48.109169" lon="-4.366641"><ele>66.0</ele><time>2016-12-22T13:21:57Z</time></trkpt>
<trkpt lat="48.109194" lon="-4.366757"><ele>67.0</ele><time>2016-12-22T13:22:03Z</time></trkpt>
<trkpt lat="48.109223" lon="-4.366864"><ele>70.0</ele><time>2016-12-22T13:22:09Z</time></trkpt>
<trkpt lat="48.109265" lon="-4.366958"><ele>70.0</ele><time>2016-12-22T13:22:14Z</time></trkpt>
<trkpt lat="48.109302" lon="-4.367059"><ele>69.0</ele><time>2016-12-22T13:22:19Z</time></trkpt>
<trkpt lat="48.109348" lon="-4.367174"><ele>70.0</ele><time>2016-12-22T13:22:25Z</time></trkpt>
<trkpt lat="48.109394" lon="-4.367285"><ele>69.0</ele><time>2016-12-22T13:22:31Z</time></trkpt>
<trkpt lat="48.109433" lon="-4.367389"><ele>69.0</ele><time>2016-12-22T13:22:37Z</time></trkpt>
<trkpt lat="48.109474" lon="-4.367496"><ele>71.0</ele><time>2016-12-22T13:22:43Z</time></trkpt>
<trkpt lat="48.109454" lon="-4.367620"><ele>71.0</ele><time>2016-12-22T13:22:51Z</time></trkpt>
<trkpt lat="48.109427" lon="-4.367729"><ele>72.0</ele><time>2016-12-22T13:23:00Z</time></trkpt>
<trkpt lat="48.109385" lon="-4.367833"><ele>70.0</ele><time>2016-12-22T13:23:07Z</time></trkpt>
<trkpt lat="48.109403" lon="-4.367948"><ele>68.0</ele><time>2016-12-22T13:23:13Z</time></trkpt>
<trkpt lat="48.109424" lon="-4.368063"><ele>66.0</ele><time>2016-12-22T13:23:20Z</time></trkpt>
<trkpt lat="48.109481" lon="-4.368152"><ele>66.0</ele><time>2016-12-22T13:23:27Z</time></trkpt>
<trkpt lat="48.109536" lon="-4.368240"><ele>65.0</ele><time>2016-12-22T13:23:34Z</time></trkpt>
<trkpt lat="48.109583" lon="-4.368325"><ele>65.0</ele><time>2016-12-22T13:23:38Z</time></trkpt>
<trkpt lat="48.109650" lon="-4.368391"><ele>65.0</ele><time>2016-12-22T13:23:42Z</time></trkpt>
<trkpt lat="48.109666" lon="-4.368502"><ele>66.0</ele><time>2016-12-22T13:23:48Z</time></trkpt>
<trkpt lat="48.109658" lon="-4.368635"><ele>67.0</ele><time>2016-12-22T13:23:55Z</time></trkpt>
<trkpt lat="48.109651" lon="-4.368762"><ele>67.0</ele><time>2016-12-22T13:24:01Z</time></trkpt>
<trkpt lat="48.109666" lon="-4.368888"><ele>69.0</ele><time>2016-12-22T13:24:08Z</time></trkpt>
<trkpt lat="48.109665" lon="-4.369008"><ele>72.0</ele><time>2016-12-22T13:24:14Z</time></trkpt>
<trkpt lat="48.109673" lon="-4.369124"><ele>74.0</ele><time>2016-12-22T13:24:19Z</time></trkpt>
<trkpt lat="48.109660" lon="-4.369250"><ele>73.0</ele><time>2016-12-22T13:24:26Z</time></trkpt>
<trkpt lat="48.109595" lon="-4.369301"><ele>71.0</ele><time>2016-12-22T13:24:36Z</time></trkpt>
<trkpt lat="48.109519" lon="-4.369272"><ele>72.0</ele><time>2016-12-22T13:24:41Z</time></trkpt>
<trkpt lat="48.109437" lon="-4.369219"><ele>74.0</ele><time>2016-12-22T13:24:56Z</time></trkpt>
<trkpt lat="48.109386" lon="-4.369307"><ele>110.0</ele><time>2016-12-22T13:25:03Z</time></trkpt>
<trkpt lat="48.109355" lon="-4.369447"><ele>85.0</ele><time>2016-12-22T13:25:08Z</time></trkpt>
<trkpt lat="48.109332" lon="-4.369559"><ele>82.0</ele><time>2016-12-22T13:25:13Z</time></trkpt>
<trkpt lat="48.109310" lon="-4.369672"><ele>84.0</ele><time>2016-12-22T13:25:18Z</time></trkpt>
<trkpt lat="48.109285" lon="-4.369782"><ele>84.0</ele><time>2016-12-22T13:25:24Z</time></trkpt>
<trkpt lat="48.109282" lon="-4.369914"><ele>86.0</ele><time>2016-12-22T13:25:31Z</time></trkpt>
<trkpt lat="48.109349" lon="-4.369979"><ele>86.0</ele><time>2016-12-22T13:25:38Z</time></trkpt>
<trkpt lat="48.109412" lon="-4.370040"><ele>82.0</ele><time>2016-12-22T13:25:43Z</time></trkpt>
<trkpt lat="48.109467" lon="-4.370130"><ele>81.0</ele><time>2016-12-22T13:25:48Z</time></trkpt>
<trkpt lat="48.109527" lon="-4.370224"><ele>80.0</ele><time>2016-12-22T13:25:53Z</time></trkpt>
<trkpt lat="48.109571" lon="-4.370338"><ele>77.0</ele><time>2016-12-22T13:25:59Z</time></trkpt>
<trkpt lat="48.109593" lon="-4.370449"><ele>76.0</ele><time>2016-12-22T13:26:06Z</time></trkpt>
<trkpt lat="48.109638" lon="-4.370540"><ele>75.0</ele><time>2016-12-22T13:26:11Z</time></trkpt>
<trkpt lat="48.109705" lon="-4.370608"><ele>77.0</ele><time>2016-12-22T13:26:17Z</time></trkpt>
<trkpt lat="48.109747" lon="-4.370715"><ele>80.0</ele><time>2016-12-22T13:26:24Z</time></trkpt>
<trkpt lat="48.109813" lon="-4.370770"><ele>78.0</ele><time>2016-12-22T13:26:34Z</time></trkpt>
<trkpt lat="48.109847" lon="-4.370881"><ele>77.0</ele><time>2016-12-22T13:26:40Z</time></trkpt>
<trkpt lat="48.109836" lon="-4.370995"><ele>80.0</ele><time>2016-12-22T13:26:45Z</time></trkpt>
<trkpt lat="48.109816" lon="-4.371124"><ele>80.0</ele><time>2016-12-22T13:26:54Z</time></trkpt>
<trkpt lat="48.109828" lon="-4.371242"><ele>79.0</ele><time>2016-12-22T13:27:00Z</time></trkpt>
<trkpt lat="48.109760" lon="-4.371322"><ele>79.0</ele><time>2016-12-22T13:27:07Z</time></trkpt>
<trkpt lat="48.109787" lon="-4.371450"><ele>81.0</ele><time>2016-12-22T13:27:16Z</time></trkpt>
<trkpt lat="48.109801" lon="-4.371579"><ele>80.0</ele><time>2016-12-22T13:27:22Z</time></trkpt>
<trkpt lat="48.109805" lon="-4.371712"><ele>77.0</ele><time>2016-12-22T13:27:29Z</time></trkpt>
<trkpt lat="48.109823" lon="-4.371832"><ele>77.0</ele><time>2016-12-22T13:27:34Z</time></trkpt>
<trkpt lat="48.109855" lon="-4.371938"><ele>77.0</ele><time>2016-12-22T13:27:41Z</time></trkpt>
<trkpt lat="48.109921" lon="-4.372031"><ele>79.0</ele><time>2016-12-22T13:27:49Z</time></trkpt>
<trkpt lat="48.109896" lon="-4.372150"><ele>82.0</ele><time>2016-12-22T13:28:03Z</time></trkpt>
<trkpt lat="48.109864" lon="-4.372274"><ele>81.0</ele><time>2016-12-22T13:28:12Z</time></trkpt>
<trkpt lat="48.109931" lon="-4.372363"><ele>79.0</ele><time>2016-12-22T13:28:22Z</time></trkpt>
<trkpt lat="48.109968" lon="-4.372485"><ele>79.0</ele><time>2016-12-22T13:28:30Z</time></trkpt>
<trkpt lat="48.109996" lon="-4.372607"><ele>79.0</ele><time>2016-12-22T13:28:37Z</time></trkpt>
<trkpt lat="48.109962" lon="-4.372720"><ele>78.0</ele><time>2016-12-22T13:28:43Z</time></trkpt>
<trkpt lat="48.109914" lon="-4.372810"><ele>78.0</ele><time>2016-12-22T13:28:48Z</time></trkpt>
<trkpt lat="48.109870" lon="-4.372910"><ele>80.0</ele><time>2016-12-22T13:28:53Z</time></trkpt>
<trkpt lat="48.109876" lon="-4.373035"><ele>80.0</ele><time>2016-12-22T13:28:59Z</time></trkpt>
<trkpt lat="48.109910" lon="-4.373141"><ele>81.0</ele><time>2016-12-22T13:29:05Z</time></trkpt>
<trkpt lat="48.109871" lon="-4.373246"><ele>82.0</ele><time>2016-12-22T13:29:11Z</time></trkpt>
<trkpt lat="48.109872" lon="-4.373378"><ele>83.0</ele><time>2016-12-22T13:29:18Z</time></trkpt>
<trkpt lat="48.109853" lon="-4.373506"><ele>85.0</ele><time>2016-12-22T13:29:28Z</time></trkpt>
<trkpt lat="48.109773" lon="-4.373496"><ele>89.0</ele><time>2016-12-22T13:29:39Z</time></trkpt>
<trkpt lat="48.109737" lon="-4.373601"><ele>88.0</ele><time>2016-12-22T13:29:44Z</time></trkpt>
<trkpt lat="48.109683" lon="-4.373695"><ele>91.0</ele><time>2016-12-22T13:29:51Z</time></trkpt>
<trkpt lat="48.109700" lon="-4.373812"><ele>90.0</ele><time>2016-12-22T13:29:58Z</time></trkpt>
<trkpt lat="48.109722" lon="-4.373928"><ele>90.0</ele><time>2016-12-22T13:30:05Z</time></trkpt>
<trkpt lat="48.109770" lon="-4.374039"><ele>94.0</ele><time>2016-12-22T13:30:12Z</time></trkpt>
<trkpt lat="48.109761" lon="-4.374169"><ele>92.0</ele><time>2016-12-22T13:30:19Z</time></trkpt>
<trkpt lat="48.109715" lon="-4.374271"><ele>93.0</ele><time>2016-12-22T13:30:24Z</time></trkpt>
<trkpt lat="48.109671" lon="-4.374366"><ele>90.0</ele><time>2016-12-22T13:30:29Z</time></trkpt>
<trkpt lat="48.109608" lon="-4.374461"><ele>90.0</ele><time>2016-12-22T13:30:36Z</time></trkpt>
<trkpt lat="48.109612" lon="-4.374581"><ele>90.0</ele><time>2016-12-22T13:30:42Z</time></trkpt>
<trkpt lat="48.109546" lon="-4.374663"><ele>92.0</ele><time>2016-12-22T13:30:50Z</time></trkpt>
<trkpt lat="48.109477" lon="-4.374739"><ele>88.0</ele><time>2016-12-22T13:30:58Z</time></trkpt>
<trkpt lat="48.109398" lon="-4.374679"><ele>77.0</ele><time>2016-12-22T13:32:51Z</time></trkpt>
<trkpt lat="48.109323" lon="-4.374737"><ele>72.0</ele><time>2016-12-22T13:33:00Z</time></trkpt>
<trkpt lat="48.109234" lon="-4.374736"><ele>70.0</ele><time>2016-12-22T13:33:08Z</time></trkpt>
<trkpt lat="48.109149" lon="-4.374765"><ele>69.0</ele><time>2016-12-22T13:33:13Z</time></trkpt>
<trkpt lat="48.109074" lon="-4.374726"><ele>69.0</ele><time>2016-12-22T13:33:20Z</time></trkpt>
<trkpt lat="48.108992" lon="-4.374768"><ele>69.0</ele><time>2016-12-22T13:33:25Z</time></trkpt>
<trkpt lat="48.108918" lon="-4.374802"><ele>69.0</ele><time>2016-12-22T13:33:30Z</time></trkpt>
<trkpt lat="48.108841" lon="-4.374843"><ele>68.0</ele><time>2016-12-22T13:33:36Z</time></trkpt>
<trkpt lat="48.108782" lon="-4.374917"><ele>69.0</ele><time>2016-12-22T13:33:42Z</time></trkpt>
<trkpt lat="48.108716" lon="-4.374995"><ele>68.0</ele><time>2016-12-22T13:33:48Z</time></trkpt>
<trkpt lat="48.108646" lon="-4.375047"><ele>73.0</ele><time>2016-12-22T13:34:07Z</time></trkpt>
<trkpt lat="48.108565" lon="-4.375093"><ele>75.0</ele><time>2016-12-22T13:34:15Z</time></trkpt>
<trkpt lat="48.108482" lon="-4.375126"><ele>77.0</ele><time>2016-12-22T13:34:21Z</time></trkpt>
<trkpt lat="48.108407" lon="-4.375198"><ele>79.0</ele><time>2016-12-22T13:34:28Z</time></trkpt>
<trkpt lat="48.108332" lon="-4.375246"><ele>86.0</ele><time>2016-12-22T13:34:39Z</time></trkpt>
<trkpt lat="48.108270" lon="-4.375323"><ele>90.0</ele><time>2016-12-22T13:34:47Z</time></trkpt>
<trkpt lat="48.108221" lon="-4.375432"><ele>93.0</ele><time>2016-12-22T13:34:55Z</time></trkpt>
<trkpt lat="48.108153" lon="-4.375517"><ele>96.0</ele><time>2016-12-22T13:35:03Z</time></trkpt>
<trkpt lat="48.108091" lon="-4.375608"><ele>100.0</ele><time>2016-12-22T13:35:12Z</time></trkpt>
<trkpt lat="48.108094" lon="-4.375713"><ele>101.0</ele><time>2016-12-22T13:35:19Z</time></trkpt>
<trkpt lat="48.108104" lon="-4.375838"><ele>99.0</ele><time>2016-12-22T13:35:24Z</time></trkpt>
<trkpt lat="48.108107" lon="-4.375955"><ele>99.0</ele><time>2016-12-22T13:35:29Z</time></trkpt>
<trkpt lat="48.108074" lon="-4.376076"><ele>100.0</ele><time>2016-12-22T13:35:38Z</time></trkpt>
<trkpt lat="48.108072" lon="-4.376209"><ele>99.0</ele><time>2016-12-22T13:35:47Z</time></trkpt>
<trkpt lat="48.108063" lon="-4.376338"><ele>102.0</ele><time>2016-12-22T13:35:57Z</time></trkpt>
<trkpt lat="48.108070" lon="-4.376459"><ele>101.0</ele><time>2016-12-22T13:36:02Z</time></trkpt>
<trkpt lat="48.108070" lon="-4.376603"><ele>101.0</ele><time>2016-12-22T13:36:07Z</time></trkpt>
<trkpt lat="48.108055" lon="-4.376728"><ele>102.0</ele><time>2016-12-22T13:36:12Z</time></trkpt>
<trkpt lat="48.108037" lon="-4.376847"><ele>100.0</ele><time>2016-12-22T13:36:17Z</time></trkpt>
<trkpt lat="48.107975" lon="-4.376945"><ele>100.0</ele><time>2016-12-22T13:36:24Z</time></trkpt>
<trkpt lat="48.107941" lon="-4.377056"><ele>101.0</ele><time>2016-12-22T13:36:30Z</time></trkpt>
<trkpt lat="48.107915" lon="-4.377172"><ele>102.0</ele><time>2016-12-22T13:36:37Z</time></trkpt>
<trkpt lat="48.107897" lon="-4.377294"><ele>101.0</ele><time>2016-12-22T13:36:42Z</time></trkpt>
<trkpt lat="48.107817" lon="-4.377348"><ele>98.0</ele><time>2016-12-22T13:36:51Z</time></trkpt>
<trkpt lat="48.107782" lon="-4.377454"><ele>102.0</ele><time>2016-12-22T13:36:59Z</time></trkpt>
<trkpt lat="48.107763" lon="-4.377568"><ele>106.0</ele><time>2016-12-22T13:37:05Z</time></trkpt>
<trkpt lat="48.107772" lon="-4.377699"><ele>107.0</ele><time>2016-12-22T13:37:12Z</time></trkpt>
<trkpt lat="48.107784" lon="-4.377826"><ele>109.0</ele><time>2016-12-22T13:37:24Z</time></trkpt>
<trkpt lat="48.107723" lon="-4.377909"><ele>104.0</ele><time>2016-12-22T13:37:30Z</time></trkpt>
<trkpt lat="48.107654" lon="-4.377961"><ele>106.0</ele><time>2016-12-22T13:37:36Z</time></trkpt>
<trkpt lat="48.107566" lon="-4.377970"><ele>101.0</ele><time>2016-12-22T13:40:19Z</time></trkpt>
<trkpt lat="48.107524" lon="-4.378079"><ele>101.0</ele><time>2016-12-22T13:40:25Z</time></trkpt>
<trkpt lat="48.107457" lon="-4.378163"><ele>101.0</ele><time>2016-12-22T13:40:31Z</time></trkpt>
<trkpt lat="48.107408" lon="-4.378236"><ele>100.0</ele><time>2016-12-22T13:40:36Z</time></trkpt>
<trkpt lat="48.107355" lon="-4.378341"><ele>101.0</ele><time>2016-12-22T13:40:45Z</time></trkpt>
<trkpt lat="48.107297" lon="-4.378439"><ele>100.0</ele><time>2016-12-22T13:40:55Z</time></trkpt>
<trkpt lat="48.107222" lon="-4.378503"><ele>98.0</ele><time>2016-12-22T13:41:02Z</time></trkpt>
<trkpt lat="48.107247" lon="-4.378617"><ele>96.0</ele><time>2016-12-22T13:41:11Z</time></trkpt>
<trkpt lat="48.107309" lon="-4.378712"><ele>98.0</ele><time>2016-12-22T13:41:17Z</time></trkpt>
<trkpt lat="48.107365" lon="-4.378809"><ele>93.0</ele><time>2016-12-22T13:41:24Z</time></trkpt>
<trkpt lat="48.107423" lon="-4.378904"><ele>109.0</ele><time>2016-12-22T13:41:39Z</time></trkpt>
<trkpt lat="48.107473" lon="-4.379015"><ele>100.0</ele><time>2016-12-22T13:41:51Z</time></trkpt>
<trkpt lat="48.107525" lon="-4.379116"><ele>96.0</ele><time>2016-12-22T13:41:57Z</time></trkpt>
<trkpt lat="48.107543" lon="-4.379232"><ele>94.0</ele><time>2016-12-22T13:42:03Z</time></trkpt>
<trkpt lat="48.107570" lon="-4.379335"><ele>92.0</ele><time>2016-12-22T13:42:08Z</time></trkpt>
<trkpt lat="48.107575" lon="-4.379464"><ele>91.0</ele><time>2016-12-22T13:42:13Z</time></trkpt>
<trkpt lat="48.107574" lon="-4.379579"><ele>90.0</ele><time>2016-12-22T13:42:18Z</time></trkpt>
<trkpt lat="48.107540" lon="-4.379694"><ele>84.0</ele><time>2016-12-22T13:42:24Z</time></trkpt>
<trkpt lat="48.107479" lon="-4.379775"><ele>83.0</ele><time>2016-12-22T13:42:29Z</time></trkpt>
<trkpt lat="48.107439" lon="-4.379873"><ele>85.0</ele><time>2016-12-22T13:42:33Z</time></trkpt>
<trkpt lat="48.107382" lon="-4.379964"><ele>84.0</ele><time>2016-12-22T13:42:39Z</time></trkpt>
<trkpt lat="48.107311" lon="-4.380045"><ele>85.0</ele><time>2016-12-22T13:42:46Z</time></trkpt>
<trkpt lat="48.107258" lon="-4.380143"><ele>85.0</ele><time>2016-12-22T13:42:52Z</time></trkpt>
<trkpt lat="48.107210" lon="-4.380248"><ele>87.0</ele><time>2016-12-22T13:42:58Z</time></trkpt>
<trkpt lat="48.107159" lon="-4.380356"><ele>87.0</ele><time>2016-12-22T13:43:04Z</time></trkpt>
<trkpt lat="48.107140" lon="-4.380474"><ele>86.0</ele><time>2016-12-22T13:43:14Z</time></trkpt>
<trkpt lat="48.107181" lon="-4.380584"><ele>91.0</ele><time>2016-12-22T13:43:26Z</time></trkpt>
<trkpt lat="48.107130" lon="-4.380686"><ele>87.0</ele><time>2016-12-22T13:43:32Z</time></trkpt>
<trkpt lat="48.107067" lon="-4.380778"><ele>89.0</ele><time>2016-12-22T13:43:39Z</time></trkpt>
<trkpt lat="48.107031" lon="-4.380898"><ele>87.0</ele><time>2016-12-22T13:43:46Z</time></trkpt>
<trkpt lat="48.106971" lon="-4.380982"><ele>86.0</ele><time>2016-12-22T13:43:51Z</time></trkpt>
<trkpt lat="48.106922" lon="-4.381076"><ele>83.0</ele><time>2016-12-22T13:43:56Z</time></trkpt>
<trkpt lat="48.106854" lon="-4.381143"><ele>83.0</ele><time>2016-12-22T13:44:01Z</time></trkpt>
<trkpt lat="48.106801" lon="-4.381249"><ele>83.0</ele><time>2016-12-22T13:44:08Z</time></trkpt>
<trkpt lat="48.106727" lon="-4.381296"><ele>82.0</ele><time>2016-12-22T13:44:13Z</time></trkpt>
<trkpt lat="48.106657" lon="-4.381371"><ele>79.0</ele><time>2016-12-22T13:44:22Z</time></trkpt>
<trkpt lat="48.106599" lon="-4.381440"><ele>80.0</ele><time>2016-12-22T13:44:27Z</time></trkpt>
<trkpt lat="48.106528" lon="-4.381483"><ele>79.0</ele><time>2016-12-22T13:44:32Z</time></trkpt>
<trkpt lat="48.106482" lon="-4.381583"><ele>80.0</ele><time>2016-12-22T13:44:38Z</time></trkpt>
<trkpt lat="48.106434" lon="-4.381695"><ele>80.0</ele><time>2016-12-22T13:44:45Z</time></trkpt>
<trkpt lat="48.106385" lon="-4.381796"><ele>80.0</ele><time>2016-12-22T13:44:51Z</time></trkpt>
<trkpt lat="48.106348" lon="-4.381901"><ele>80.0</ele><time>2016-12-22T13:44:56Z</time></trkpt>
<trkpt lat="48.106297" lon="-4.381992"><ele>81.0</ele><time>2016-12-22T13:45:01Z</time></trkpt>
<trkpt lat="48.106230" lon="-4.382082"><ele>81.0</ele><time>2016-12-22T13:45:07Z</time></trkpt>
<trkpt lat="48.106166" lon="-4.382168"><ele>86.0</ele><time>2016-12-22T13:45:16Z</time></trkpt>
<trkpt lat="48.106116" lon="-4.382268"><ele>90.0</ele><time>2016-12-22T13:45:23Z</time></trkpt>
<trkpt lat="48.106061" lon="-4.382364"><ele>89.0</ele><time>2016-12-22T13:45:31Z</time></trkpt>
<trkpt lat="48.106017" lon="-4.382473"><ele>88.0</ele><time>2016-12-22T13:45:37Z</time></trkpt>
<trkpt lat="48.105958" lon="-4.382565"><ele>89.0</ele><time>2016-12-22T13:45:44Z</time></trkpt>
<trkpt lat="48.105885" lon="-4.382611"><ele>88.0</ele><time>2016-12-22T13:45:50Z</time></trkpt>
<trkpt lat="48.105815" lon="-4.382675"><ele>91.0</ele><time>2016-12-22T13:46:15Z</time></trkpt>
<trkpt lat="48.105760" lon="-4.382769"><ele>92.0</ele><time>2016-12-22T13:46:21Z</time></trkpt>
<trkpt lat="48.105704" lon="-4.382848"><ele>92.0</ele><time>2016-12-22T13:46:26Z</time></trkpt>
<trkpt lat="48.105668" lon="-4.382951"><ele>92.0</ele><time>2016-12-22T13:46:32Z</time></trkpt>
<trkpt lat="48.105689" lon="-4.383072"><ele>98.0</ele><time>2016-12-22T13:46:40Z</time></trkpt>
<trkpt lat="48.105677" lon="-4.383198"><ele>101.0</ele><time>2016-12-22T13:46:50Z</time></trkpt>
<trkpt lat="48.105676" lon="-4.383325"><ele>102.0</ele><time>2016-12-22T13:47:00Z</time></trkpt>
<trkpt lat="48.105699" lon="-4.383452"><ele>106.0</ele><time>2016-12-22T13:47:10Z</time></trkpt>
<trkpt lat="48.105644" lon="-4.383537"><ele>106.0</ele><time>2016-12-22T13:47:15Z</time></trkpt>
<trkpt lat="48.105596" lon="-4.383650"><ele>105.0</ele><time>2016-12-22T13:47:25Z</time></trkpt>
<trkpt lat="48.105591" lon="-4.383773"><ele>104.0</ele><time>2016-12-22T13:47:33Z</time></trkpt>
<trkpt lat="48.105572" lon="-4.383897"><ele>101.0</ele><time>2016-12-22T13:47:38Z</time></trkpt>
<trkpt lat="48.105598" lon="-4.384025"><ele>101.0</ele><time>2016-12-22T13:47:45Z</time></trkpt>
<trkpt lat="48.105606" lon="-4.384151"><ele>108.0</ele><time>2016-12-22T13:47:53Z</time></trkpt>
<trkpt lat="48.105576" lon="-4.384251"><ele>108.0</ele><time>2016-12-22T13:47:58Z</time></trkpt>
<trkpt lat="48.105538" lon="-4.384366"><ele>105.0</ele><time>2016-12-22T13:48:04Z</time></trkpt>
<trkpt lat="48.105479" lon="-4.384444"><ele>99.0</ele><time>2016-12-22T13:48:46Z</time></trkpt>
<trkpt lat="48.105420" lon="-4.384539"><ele>96.0</ele><time>2016-12-22T13:48:52Z</time></trkpt>
<trkpt lat="48.105389" lon="-4.384648"><ele>94.0</ele><time>2016-12-22T13:48:57Z</time></trkpt>
<trkpt lat="48.105360" lon="-4.384755"><ele>93.0</ele><time>2016-12-22T13:49:02Z</time></trkpt>
<trkpt lat="48.105325" lon="-4.384859"><ele>94.0</ele><time>2016-12-22T13:49:07Z</time></trkpt>
<trkpt lat="48.105286" lon="-4.384969"><ele>92.0</ele><time>2016-12-22T13:49:12Z</time></trkpt>
<trkpt lat="48.105258" lon="-4.385083"><ele>91.0</ele><time>2016-12-22T13:49:17Z</time></trkpt>
<trkpt lat="48.105234" lon="-4.385210"><ele>91.0</ele><time>2016-12-22T13:49:22Z</time></trkpt>
<trkpt lat="48.105212" lon="-4.385329"><ele>91.0</ele><time>2016-12-22T13:49:28Z</time></trkpt>
<trkpt lat="48.105171" lon="-4.385443"><ele>91.0</ele><time>2016-12-22T13:49:34Z</time></trkpt>
<trkpt lat="48.105140" lon="-4.385558"><ele>94.0</ele><time>2016-12-22T13:49:40Z</time></trkpt>
<trkpt lat="48.105102" lon="-4.385672"><ele>94.0</ele><time>2016-12-22T13:49:46Z</time></trkpt>
<trkpt lat="48.105066" lon="-4.385793"><ele>94.0</ele><time>2016-12-22T13:49:52Z</time></trkpt>
<trkpt lat="48.105034" lon="-4.385914"><ele>93.0</ele><time>2016-12-22T13:49:59Z</time></trkpt>
<trkpt lat="48.105032" lon="-4.386020"><ele>93.0</ele><time>2016-12-22T13:50:04Z</time></trkpt>
<trkpt lat="48.105029" lon="-4.386140"><ele>97.0</ele><time>2016-12-22T13:50:10Z</time></trkpt>
<trkpt lat="48.105080" lon="-4.386228"><ele>96.0</ele><time>2016-12-22T13:50:16Z</time></trkpt>
<trkpt lat="48.105142" lon="-4.386319"><ele>96.0</ele><time>2016-12-22T13:50:23Z</time></trkpt>
<trkpt lat="48.105182" lon="-4.386428"><ele>93.0</ele><time>2016-12-22T13:50:29Z</time></trkpt>
<trkpt lat="48.105202" lon="-4.386528"><ele>94.0</ele><time>2016-12-22T13:50:34Z</time></trkpt>
<trkpt lat="48.105230" lon="-4.386651"><ele>94.0</ele><time>2016-12-22T13:50:40Z</time></trkpt>
<trkpt lat="48.105230" lon="-4.386780"><ele>90.0</ele><time>2016-12-22T13:50:47Z</time></trkpt>
<trkpt lat="48.105148" lon="-4.386828"><ele>91.0</ele><time>2016-12-22T13:50:54Z</time></trkpt>
<trkpt lat="48.105084" lon="-4.386886"><ele>90.0</ele><time>2016-12-22T13:50:59Z</time></trkpt>
<trkpt lat="48.105015" lon="-4.386928"><ele>88.0</ele><time>2016-12-22T13:51:04Z</time></trkpt>
<trkpt lat="48.104958" lon="-4.386990"><ele>87.0</ele><time>2016-12-22T13:51:08Z</time></trkpt>
<trkpt lat="48.104899" lon="-4.387080"><ele>86.0</ele><time>2016-12-22T13:51:17Z</time></trkpt>
<trkpt lat="48.104859" lon="-4.387189"><ele>86.0</ele><time>2016-12-22T13:51:39Z</time></trkpt>
<trkpt lat="48.104824" lon="-4.387299"><ele>87.0</ele><time>2016-12-22T13:51:52Z</time></trkpt>
<trkpt lat="48.104834" lon="-4.387408"><ele>88.0</ele><time>2016-12-22T13:52:01Z</time></trkpt>
<trkpt lat="48.104882" lon="-4.387514"><ele>90.0</ele><time>2016-12-22T13:52:08Z</time></trkpt>
<trkpt lat="48.104888" lon="-4.387642"><ele>91.0</ele><time>2016-12-22T13:52:15Z</time></trkpt>
<trkpt lat="48.104885" lon="-4.387760"><ele>88.0</ele><time>2016-12-22T13:52:21Z</time></trkpt>
<trkpt lat="48.104843" lon="-4.387874"><ele>89.0</ele><time>2016-12-22T13:52:30Z</time></trkpt>
<trkpt lat="48.104805" lon="-4.387974"><ele>86.0</ele><time>2016-12-22T13:52:35Z</time></trkpt>
<trkpt lat="48.104806" lon="-4.388106"><ele>85.0</ele><time>2016-12-22T13:52:41Z</time></trkpt>
<trkpt lat="48.104823" lon="-4.388235"><ele>86.0</ele><time>2016-12-22T13:52:47Z</time></trkpt>
<trkpt lat="48.104833" lon="-4.388344"><ele>85.0</ele><time>2016-12-22T13:52:52Z</time></trkpt>
<trkpt lat="48.104854" lon="-4.388465"><ele>85.0</ele><time>2016-12-22T13:52:56Z</time></trkpt>
<trkpt lat="48.104831" lon="-4.388556"><ele>82.0</ele><time>2016-12-22T13:53:00Z</time></trkpt>
<trkpt lat="48.104804" lon="-4.388676"><ele>83.0</ele><time>2016-12-22T13:53:06Z</time></trkpt>
<trkpt lat="48.104767" lon="-4.388793"><ele>83.0</ele><time>2016-12-22T13:53:13Z</time></trkpt>
<trkpt lat="48.104737" lon="-4.388912"><ele>84.0</ele><time>2016-12-22T13:53:23Z</time></trkpt>
<trkpt lat="48.104707" lon="-4.389029"><ele>84.0</ele><time>2016-12-22T13:53:32Z</time></trkpt>
<trkpt lat="48.104657" lon="-4.389133"><ele>83.0</ele><time>2016-12-22T13:53:38Z</time></trkpt>
<trkpt lat="48.104594" lon="-4.389225"><ele>83.0</ele><time>2016-12-22T13:53:45Z</time></trkpt>
<trkpt lat="48.104555" lon="-4.389340"><ele>84.0</ele><time>2016-12-22T13:53:51Z</time></trkpt>
<trkpt lat="48.104522" lon="-4.389463"><ele>85.0</ele><time>2016-12-22T13:53:58Z</time></trkpt>
<trkpt lat="48.104497" lon="-4.389592"><ele>86.0</ele><time>2016-12-22T13:54:06Z</time></trkpt>
<trkpt lat="48.104487" lon="-4.389720"><ele>87.0</ele><time>2016-12-22T13:54:13Z</time></trkpt>
<trkpt lat="48.104469" lon="-4.389840"><ele>83.0</ele><time>2016-12-22T13:54:20Z</time></trkpt>
<trkpt lat="48.104460" lon="-4.389973"><ele>80.0</ele><time>2016-12-22T13:54:26Z</time></trkpt>
<trkpt lat="48.104423" lon="-4.390082"><ele>77.0</ele><time>2016-12-22T13:54:33Z</time></trkpt>
<trkpt lat="48.104397" lon="-4.390194"><ele>78.0</ele><time>2016-12-22T13:54:37Z</time></trkpt>
<trkpt lat="48.104373" lon="-4.390316"><ele>77.0</ele><time>2016-12-22T13:54:49Z</time></trkpt>
<trkpt lat="48.104440" lon="-4.390380"><ele>76.0</ele><time>2016-12-22T13:54:57Z</time></trkpt>
<trkpt lat="48.104490" lon="-4.390474"><ele>76.0</ele><time>2016-12-22T13:55:04Z</time></trkpt>
<trkpt lat="48.104437" lon="-4.390578"><ele>76.0</ele><time>2016-12-22T13:55:12Z</time></trkpt>
<trkpt lat="48.104495" lon="-4.390676"><ele>82.0</ele><time>2016-12-22T13:55:23Z</time></trkpt>
<trkpt lat="48.104536" lon="-4.390786"><ele>81.0</ele><time>2016-12-22T13:55:45Z</time></trkpt>
<trkpt lat="48.104559" lon="-4.390899"><ele>81.0</ele><time>2016-12-22T13:55:53Z</time></trkpt>
<trkpt lat="48.104615" lon="-4.390997"><ele>87.0</ele><time>2016-12-22T13:56:00Z</time></trkpt>
<trkpt lat="48.104579" lon="-4.391100"><ele>93.0</ele><time>2016-12-22T13:56:19Z</time></trkpt>
<trkpt lat="48.104505" lon="-4.391173"><ele>94.0</ele><time>2016-12-22T13:56:27Z</time></trkpt>
<trkpt lat="48.104454" lon="-4.391271"><ele>99.0</ele><time>2016-12-22T13:56:38Z</time></trkpt>
<trkpt lat="48.104432" lon="-4.391378"><ele>95.0</ele><time>2016-12-22T13:56:45Z</time></trkpt>
<trkpt lat="48.104370" lon="-4.391471"><ele>100.0</ele><time>2016-12-22T13:56:52Z</time></trkpt>
<trkpt lat="48.104339" lon="-4.391588"><ele>108.0</ele><time>2016-12-22T13:57:04Z</time></trkpt>
<trkpt lat="48.104267" lon="-4.391602"><ele>107.0</ele><time>2016-12-22T13:57:11Z</time></trkpt>
<trkpt lat="48.104183" lon="-4.391598"><ele>104.0</ele><time>2016-12-22T13:57:18Z</time></trkpt>
<trkpt lat="48.104097" lon="-4.391567"><ele>108.0</ele><time>2016-12-22T13:57:27Z</time></trkpt>
<trkpt lat="48.104010" lon="-4.391516"><ele>110.0</ele><time>2016-12-22T13:57:32Z</time></trkpt>
<trkpt lat="48.103934" lon="-4.391487"><ele>124.0</ele><time>2016-12-22T13:57:40Z</time></trkpt>
<trkpt lat="48.103856" lon="-4.391479"><ele>114.0</ele><time>2016-12-22T13:57:46Z</time></trkpt>
<trkpt lat="48.103779" lon="-4.391458"><ele>109.0</ele><time>2016-12-22T13:57:51Z</time></trkpt>
<trkpt lat="48.103716" lon="-4.391419"><ele>109.0</ele><time>2016-12-22T13:57:55Z</time></trkpt>
<trkpt lat="48.103642" lon="-4.391375"><ele>110.0</ele><time>2016-12-22T13:58:01Z</time></trkpt>
<trkpt lat="48.103564" lon="-4.391368"><ele>111.0</ele><time>2016-12-22T13:58:07Z</time></trkpt>
<trkpt lat="48.103485" lon="-4.391344"><ele>111.0</ele><time>2016-12-22T13:58:12Z</time></trkpt>
<trkpt lat="48.103396" lon="-4.391327"><ele>111.0</ele><time>2016-12-22T13:58:21Z</time></trkpt>
<trkpt lat="48.103380" lon="-4.391456"><ele>111.0</ele><time>2016-12-22T13:58:29Z</time></trkpt>
<trkpt lat="48.103400" lon="-4.391578"><ele>112.0</ele><time>2016-12-22T13:58:36Z</time></trkpt>
<trkpt lat="48.103428" lon="-4.391691"><ele>113.0</ele><time>2016-12-22T13:58:42Z</time></trkpt>
<trkpt lat="48.103424" lon="-4.391811"><ele>109.0</ele><time>2016-12-22T13:58:48Z</time></trkpt>
<trkpt lat="48.103435" lon="-4.391930"><ele>112.0</ele><time>2016-12-22T13:58:53Z</time></trkpt>
<trkpt lat="48.103425" lon="-4.392043"><ele>112.0</ele><time>2016-12-22T13:58:58Z</time></trkpt>
<trkpt lat="48.103405" lon="-4.392165"><ele>111.0</ele><time>2016-12-22T13:59:04Z</time></trkpt>
<trkpt lat="48.103368" lon="-4.392283"><ele>111.0</ele><time>2016-12-22T13:59:10Z</time></trkpt>
<trkpt lat="48.103333" lon="-4.392400"><ele>113.0</ele><time>2016-12-22T13:59:16Z</time></trkpt>
<trkpt lat="48.103299" lon="-4.392522"><ele>111.0</ele><time>2016-12-22T13:59:23Z</time></trkpt>
<trkpt lat="48.103276" lon="-4.392644"><ele>114.0</ele><time>2016-12-22T13:59:31Z</time></trkpt>
<trkpt lat="48.103261" lon="-4.392771"><ele>116.0</ele><time>2016-12-22T13:59:37Z</time></trkpt>
<trkpt lat="48.103189" lon="-4.392828"><ele>119.0</ele><time>2016-12-22T13:59:43Z</time></trkpt>
<trkpt lat="48.103106" lon="-4.392815"><ele>120.0</ele><time>2016-12-22T13:59:48Z</time></trkpt>
<trkpt lat="48.103028" lon="-4.392818"><ele>119.0</ele><time>2016-12-22T13:59:52Z</time></trkpt>
<trkpt lat="48.102947" lon="-4.392800"><ele>91.0</ele><time>2016-12-22T13:59:59Z</time></trkpt>
<trkpt lat="48.102858" lon="-4.392778"><ele>107.0</ele><time>2016-12-22T14:00:05Z</time></trkpt>
<trkpt lat="48.102781" lon="-4.392745"><ele>108.0</ele><time>2016-12-22T14:00:11Z</time></trkpt>
<trkpt lat="48.102716" lon="-4.392671"><ele>111.0</ele><time>2016-12-22T14:00:18Z</time></trkpt>
<trkpt lat="48.102639" lon="-4.392631"><ele>114.0</ele><time>2016-12-22T14:00:23Z</time></trkpt>
<trkpt lat="48.102570" lon="-4.392592"><ele>120.0</ele><time>2016-12-22T14:00:29Z</time></trkpt>
<trkpt lat="48.102496" lon="-4.392557"><ele>120.0</ele><time>2016-12-22T14:00:34Z</time></trkpt>
<trkpt lat="48.102428" lon="-4.392515"><ele>123.0</ele><time>2016-12-22T14:00:39Z</time></trkpt>
<trkpt lat="48.102350" lon="-4.392480"><ele>126.0</ele><time>2016-12-22T14:00:44Z</time></trkpt>
<trkpt lat="48.102271" lon="-4.392459"><ele>122.0</ele><time>2016-12-22T14:00:50Z</time></trkpt>
<trkpt lat="48.102198" lon="-4.392446"><ele>117.0</ele><time>2016-12-22T14:00:55Z</time></trkpt>
<trkpt lat="48.102129" lon="-4.392383"><ele>119.0</ele><time>2016-12-22T14:01:00Z</time></trkpt>
<trkpt lat="48.102055" lon="-4.392330"><ele>120.0</ele><time>2016-12-22T14:01:04Z</time></trkpt>
<trkpt lat="48.101998" lon="-4.392247"><ele>120.0</ele><time>2016-12-22T14:01:09Z</time></trkpt>
<trkpt lat="48.101911" lon="-4.392219"><ele>119.0</ele><time>2016-12-22T14:01:14Z</time></trkpt>
<trkpt lat="48.101849" lon="-4.392136"><ele>119.0</ele><time>2016-12-22T14:01:20Z</time></trkpt>
<trkpt lat="48.101789" lon="-4.392061"><ele>120.0</ele><time>2016-12-22T14:01:26Z</time></trkpt>
<trkpt lat="48.101713" lon="-4.392003"><ele>120.0</ele><time>2016-12-22T14:01:32Z</time></trkpt>
<trkpt lat="48.101642" lon="-4.391948"><ele>118.0</ele><time>2016-12-22T14:01:39Z</time></trkpt>
<trkpt lat="48.101581" lon="-4.391878"><ele>118.0</ele><time>2016-12-22T14:01:43Z</time></trkpt>
<trkpt lat="48.101523" lon="-4.391806"><ele>117.0</ele><time>2016-12-22T14:01:47Z</time></trkpt>
<trkpt lat="48.101462" lon="-4.391739"><ele>117.0</ele><time>2016-12-22T14:01:51Z</time></trkpt>
<trkpt lat="48.101397" lon="-4.391678"><ele>117.0</ele><time>2016-12-22T14:01:56Z</time></trkpt>
<trkpt lat="48.101353" lon="-4.391570"><ele>116.0</ele><time>2016-12-22T14:02:01Z</time></trkpt>
<trkpt lat="48.101336" lon="-4.391419"><ele>115.0</ele><time>2016-12-22T14:02:06Z</time></trkpt>
<trkpt lat="48.101326" lon="-4.391308"><ele>114.0</ele><time>2016-12-22T14:02:09Z</time></trkpt>
<trkpt lat="48.101362" lon="-4.391191"><ele>114.0</ele><time>2016-12-22T14:02:15Z</time></trkpt>
<trkpt lat="48.101391" lon="-4.391070"><ele>114.0</ele><time>2016-12-22T14:02:21Z</time></trkpt>
<trkpt lat="48.101399" lon="-4.390946"><ele>114.0</ele><time>2016-12-22T14:02:25Z</time></trkpt>
<trkpt lat="48.101429" lon="-4.390829"><ele>114.0</ele><time>2016-12-22T14:02:33Z</time></trkpt>
<trkpt lat="48.101479" lon="-4.390724"><ele>114.0</ele><time>2016-12-22T14:02:40Z</time></trkpt>
<trkpt lat="48.101542" lon="-4.390642"><ele>115.0</ele><time>2016-12-22T14:02:47Z</time></trkpt>
<trkpt lat="48.101568" lon="-4.390528"><ele>114.0</ele><time>2016-12-22T14:02:53Z</time></trkpt>
<trkpt lat="48.101559" lon="-4.390410"><ele>114.0</ele><time>2016-12-22T14:02:58Z</time></trkpt>
<trkpt lat="48.101561" lon="-4.390291"><ele>111.0</ele><time>2016-12-22T14:03:03Z</time></trkpt>
<trkpt lat="48.101572" lon="-4.390163"><ele>105.0</ele><time>2016-12-22T14:03:37Z</time></trkpt>
<trkpt lat="48.101607" lon="-4.390055"><ele>106.0</ele><time>2016-12-22T14:03:46Z</time></trkpt>
<trkpt lat="48.101621" lon="-4.389936"><ele>106.0</ele><time>2016-12-22T14:03:52Z</time></trkpt>
<trkpt lat="48.101621" lon="-4.389806"><ele>106.0</ele><time>2016-12-22T14:03:58Z</time></trkpt>
<trkpt lat="48.101657" lon="-4.389687"><ele>106.0</ele><time>2016-12-22T14:04:04Z</time></trkpt>
<trkpt lat="48.101706" lon="-4.389582"><ele>107.0</ele><time>2016-12-22T14:04:09Z</time></trkpt>
<trkpt lat="48.101743" lon="-4.389460"><ele>109.0</ele><time>2016-12-22T14:04:16Z</time></trkpt>
<trkpt lat="48.101752" lon="-4.389341"><ele>101.0</ele><time>2016-12-22T14:04:22Z</time></trkpt>
<trkpt lat="48.101811" lon="-4.389244"><ele>103.0</ele><time>2016-12-22T14:04:28Z</time></trkpt>
<trkpt lat="48.101855" lon="-4.389121"><ele>105.0</ele><time>2016-12-22T14:04:33Z</time></trkpt>
<trkpt lat="48.101880" lon="-4.389002"><ele>106.0</ele><time>2016-12-22T14:04:39Z</time></trkpt>
<trkpt lat="48.101891" lon="-4.388871"><ele>110.0</ele><time>2016-12-22T14:04:46Z</time></trkpt>
<trkpt lat="48.101874" lon="-4.388754"><ele>110.0</ele><time>2016-12-22T14:04:50Z</time></trkpt>
<trkpt lat="48.101872" lon="-4.388602"><ele>110.0</ele><time>2016-12-22T14:04:55Z</time></trkpt>
<trkpt lat="48.101851" lon="-4.388492"><ele>112.0</ele><time>2016-12-22T14:04:59Z</time></trkpt>
<trkpt lat="48.101825" lon="-4.388380"><ele>112.0</ele><time>2016-12-22T14:05:04Z</time></trkpt>
<trkpt lat="48.101835" lon="-4.388260"><ele>108.0</ele><time>2016-12-22T14:05:12Z</time></trkpt>
<trkpt lat="48.101837" lon="-4.388146"><ele>111.0</ele><time>2016-12-22T14:05:18Z</time></trkpt>
<trkpt lat="48.101810" lon="-4.387998"><ele>112.0</ele><time>2016-12-22T14:05:23Z</time></trkpt>
<trkpt lat="48.101776" lon="-4.387873"><ele>110.0</ele><time>2016-12-22T14:05:28Z</time></trkpt>
<trkpt lat="48.101723" lon="-4.387773"><ele>111.0</ele><time>2016-12-22T14:05:33Z</time></trkpt>
<trkpt lat="48.101651" lon="-4.387705"><ele>112.0</ele><time>2016-12-22T14:05:39Z</time></trkpt>
<trkpt lat="48.101566" lon="-4.387691"><ele>114.0</ele><time>2016-12-22T14:05:45Z</time></trkpt>
<trkpt lat="48.101488" lon="-4.387696"><ele>114.0</ele><time>2016-12-22T14:05:51Z</time></trkpt>
<trkpt lat="48.101410" lon="-4.387730"><ele>115.0</ele><time>2016-12-22T14:05:57Z</time></trkpt>
<trkpt lat="48.101333" lon="-4.387746"><ele>116.0</ele><time>2016-12-22T14:06:02Z</time></trkpt>
<trkpt lat="48.101246" lon="-4.387744"><ele>117.0</ele><time>2016-12-22T14:06:11Z</time></trkpt>
<trkpt lat="48.101157" lon="-4.387766"><ele>117.0</ele><time>2016-12-22T14:06:16Z</time></trkpt>
<trkpt lat="48.101081" lon="-4.387774"><ele>115.0</ele><time>2016-12-22T14:06:21Z</time></trkpt>
<trkpt lat="48.100994" lon="-4.387782"><ele>114.0</ele><time>2016-12-22T14:06:27Z</time></trkpt>
<trkpt lat="48.100906" lon="-4.387755"><ele>118.0</ele><time>2016-12-22T14:06:32Z</time></trkpt>
<trkpt lat="48.100827" lon="-4.387710"><ele>119.0</ele><time>2016-12-22T14:06:37Z</time></trkpt>
<trkpt lat="48.100764" lon="-4.387631"><ele>120.0</ele><time>2016-12-22T14:06:42Z</time></trkpt>
<trkpt lat="48.100690" lon="-4.387583"><ele>123.0</ele><time>2016-12-22T14:06:48Z</time></trkpt>
<trkpt lat="48.100629" lon="-4.387494"><ele>121.0</ele><time>2016-12-22T14:06:54Z</time></trkpt>
<trkpt lat="48.100585" lon="-4.387392"><ele>124.0</ele><time>2016-12-22T14:06:59Z</time></trkpt>
<trkpt lat="48.100547" lon="-4.387294"><ele>124.0</ele><time>2016-12-22T14:07:04Z</time></trkpt>
<trkpt lat="48.100491" lon="-4.387219"><ele>125.0</ele><time>2016-12-22T14:07:09Z</time></trkpt>
<trkpt lat="48.100413" lon="-4.387168"><ele>125.0</ele><time>2016-12-22T14:07:15Z</time></trkpt>
<trkpt lat="48.100362" lon="-4.387082"><ele>126.0</ele><time>2016-12-22T14:07:37Z</time></trkpt>
<trkpt lat="48.100286" lon="-4.387011"><ele>126.0</ele><time>2016-12-22T14:07:43Z</time></trkpt>
<trkpt lat="48.100210" lon="-4.386955"><ele>125.0</ele><time>2016-12-22T14:07:49Z</time></trkpt>
<trkpt lat="48.100145" lon="-4.386883"><ele>124.0</ele><time>2016-12-22T14:07:55Z</time></trkpt>
<trkpt lat="48.100070" lon="-4.386835"><ele>125.0</ele><time>2016-12-22T14:08:00Z</time></trkpt>
<trkpt lat="48.100003" lon="-4.386783"><ele>124.0</ele><time>2016-12-22T14:08:05Z</time></trkpt>
<trkpt lat="48.099925" lon="-4.386719"><ele>125.0</ele><time>2016-12-22T14:08:11Z</time></trkpt>
<trkpt lat="48.099853" lon="-4.386673"><ele>125.0</ele><time>2016-12-22T14:08:16Z</time></trkpt>
<trkpt lat="48.099787" lon="-4.386608"><ele>124.0</ele><time>2016-12-22T14:08:21Z</time></trkpt>
<trkpt lat="48.099730" lon="-4.386523"><ele>124.0</ele><time>2016-12-22T14:08:26Z</time></trkpt>
<trkpt lat="48.099672" lon="-4.386454"><ele>124.0</ele><time>2016-12-22T14:08:31Z</time></trkpt>
<trkpt lat="48.099599" lon="-4.386410"><ele>121.0</ele><time>2016-12-22T14:08:36Z</time></trkpt>
<trkpt lat="48.099532" lon="-4.386336"><ele>122.0</ele><time>2016-12-22T14:08:42Z</time></trkpt>
<trkpt lat="48.099481" lon="-4.386271"><ele>124.0</ele><time>2016-12-22T14:08:46Z</time></trkpt>
<trkpt lat="48.099407" lon="-4.386211"><ele>123.0</ele><time>2016-12-22T14:08:52Z</time></trkpt>
<trkpt lat="48.099330" lon="-4.386159"><ele>126.0</ele><time>2016-12-22T14:08:59Z</time></trkpt>
<trkpt lat="48.099255" lon="-4.386093"><ele>121.0</ele><time>2016-12-22T14:09:05Z</time></trkpt>
<trkpt lat="48.099203" lon="-4.386012"><ele>121.0</ele><time>2016-12-22T14:09:10Z</time></trkpt>
<trkpt lat="48.099207" lon="-4.385891"><ele>122.0</ele><time>2016-12-22T14:09:14Z</time></trkpt>
<trkpt lat="48.099208" lon="-4.385762"><ele>121.0</ele><time>2016-12-22T14:09:19Z</time></trkpt>
<trkpt lat="48.099199" lon="-4.385637"><ele>121.0</ele><time>2016-12-22T14:09:24Z</time></trkpt>
<trkpt lat="48.099195" lon="-4.385508"><ele>123.0</ele><time>2016-12-22T14:09:30Z</time></trkpt>
<trkpt lat="48.099230" lon="-4.385391"><ele>124.0</ele><time>2016-12-22T14:09:37Z</time></trkpt>
<trkpt lat="48.099226" lon="-4.385274"><ele>125.0</ele><time>2016-12-22T14:09:42Z</time></trkpt>
<trkpt lat="48.099221" lon="-4.385145"><ele>125.0</ele><time>2016-12-22T14:09:48Z</time></trkpt>
<trkpt lat="48.099248" lon="-4.385021"><ele>127.0</ele><time>2016-12-22T14:09:55Z</time></trkpt>
<trkpt lat="48.099258" lon="-4.384893"><ele>129.0</ele><time>2016-12-22T14:10:01Z</time></trkpt>
<trkpt lat="48.099241" lon="-4.384764"><ele>133.0</ele><time>2016-12-22T14:10:06Z</time></trkpt>
<trkpt lat="48.099209" lon="-4.384657"><ele>132.0</ele><time>2016-12-22T14:10:11Z</time></trkpt>
<trkpt lat="48.099126" lon="-4.384613"><ele>131.0</ele><time>2016-12-22T14:10:18Z</time></trkpt>
<trkpt lat="48.099045" lon="-4.384577"><ele>131.0</ele><time>2016-12-22T14:10:51Z</time></trkpt>
<trkpt lat="48.098962" lon="-4.384529"><ele>131.0</ele><time>2016-12-22T14:10:58Z</time></trkpt>
<trkpt lat="48.098892" lon="-4.384477"><ele>132.0</ele><time>2016-12-22T14:11:03Z</time></trkpt>
<trkpt lat="48.098814" lon="-4.384447"><ele>132.0</ele><time>2016-12-22T14:11:08Z</time></trkpt>
<trkpt lat="48.098741" lon="-4.384398"><ele>131.0</ele><time>2016-12-22T14:11:13Z</time></trkpt>
<trkpt lat="48.098666" lon="-4.384334"><ele>129.0</ele><time>2016-12-22T14:11:19Z</time></trkpt>
<trkpt lat="48.098595" lon="-4.384290"><ele>128.0</ele><time>2016-12-22T14:11:24Z</time></trkpt>
<trkpt lat="48.098521" lon="-4.384251"><ele>127.0</ele><time>2016-12-22T14:11:30Z</time></trkpt>
<trkpt lat="48.098437" lon="-4.384226"><ele>126.0</ele><time>2016-12-22T14:11:36Z</time></trkpt>
<trkpt lat="48.098357" lon="-4.384190"><ele>125.0</ele><time>2016-12-22T14:11:42Z</time></trkpt>
<trkpt lat="48.098280" lon="-4.384140"><ele>124.0</ele><time>2016-12-22T14:11:48Z</time></trkpt>
<trkpt lat="48.098207" lon="-4.384095"><ele>126.0</ele><time>2016-12-22T14:11:55Z</time></trkpt>
<trkpt lat="48.098134" lon="-4.384043"><ele>126.0</ele><time>2016-12-22T14:12:01Z</time></trkpt>
<trkpt lat="48.098057" lon="-4.384003"><ele>126.0</ele><time>2016-12-22T14:12:06Z</time></trkpt>
<trkpt lat="48.097989" lon="-4.383954"><ele>124.0</ele><time>2016-12-22T14:12:11Z</time></trkpt>
<trkpt lat="48.097917" lon="-4.383882"><ele>124.0</ele><time>2016-12-22T14:12:17Z</time></trkpt>
<trkpt lat="48.097837" lon="-4.383831"><ele>125.0</ele><time>2016-12-22T14:12:24Z</time></trkpt>
<trkpt lat="48.097764" lon="-4.383797"><ele>123.0</ele><time>2016-12-22T14:12:29Z</time></trkpt>
<trkpt lat="48.097697" lon="-4.383739"><ele>123.0</ele><time>2016-12-22T14:12:35Z</time></trkpt>
<trkpt lat="48.097627" lon="-4.383697"><ele>122.0</ele><time>2016-12-22T14:12:40Z</time></trkpt>
<trkpt lat="48.097539" lon="-4.383667"><ele>121.0</ele><time>2016-12-22T14:12:45Z</time></trkpt>
<trkpt lat="48.097463" lon="-4.383601"><ele>121.0</ele><time>2016-12-22T14:12:51Z</time></trkpt>
<trkpt lat="48.097376" lon="-4.383574"><ele>121.0</ele><time>2016-12-22T14:12:57Z</time></trkpt>
<trkpt lat="48.097307" lon="-4.383539"><ele>120.0</ele><time>2016-12-22T14:13:02Z</time></trkpt>
<trkpt lat="48.097227" lon="-4.383521"><ele>120.0</ele><time>2016-12-22T14:13:07Z</time></trkpt>
<trkpt lat="48.097144" lon="-4.383492"><ele>119.0</ele><time>2016-12-22T14:13:13Z</time></trkpt>
<trkpt lat="48.097056" lon="-4.383469"><ele>121.0</ele><time>2016-12-22T14:13:20Z</time></trkpt>
<trkpt lat="48.096984" lon="-4.383452"><ele>121.0</ele><time>2016-12-22T14:13:25Z</time></trkpt>
<trkpt lat="48.096904" lon="-4.383420"><ele>121.0</ele><time>2016-12-22T14:13:30Z</time></trkpt>
<trkpt lat="48.096821" lon="-4.383396"><ele>121.0</ele><time>2016-12-22T14:13:36Z</time></trkpt>
<trkpt lat="48.096739" lon="-4.383347"><ele>122.0</ele><time>2016-12-22T14:13:43Z</time></trkpt>
<trkpt lat="48.096653" lon="-4.383326"><ele>122.0</ele><time>2016-12-22T14:13:49Z</time></trkpt>
<trkpt lat="48.096573" lon="-4.383292"><ele>123.0</ele><time>2016-12-22T14:13:54Z</time></trkpt>
<trkpt lat="48.096491" lon="-4.383270"><ele>122.0</ele><time>2016-12-22T14:13:59Z</time></trkpt>
<trkpt lat="48.096428" lon="-4.383246"><ele>125.0</ele><time>2016-12-22T14:14:04Z</time></trkpt>
<trkpt lat="48.096358" lon="-4.383212"><ele>126.0</ele><time>2016-12-22T14:14:09Z</time></trkpt>
<trkpt lat="48.096278" lon="-4.383166"><ele>125.0</ele><time>2016-12-22T14:14:17Z</time></trkpt>
<trkpt lat="48.096201" lon="-4.383147"><ele>125.0</ele><time>2016-12-22T14:14:23Z</time></trkpt>
<trkpt lat="48.096128" lon="-4.383101"><ele>124.0</ele><time>2016-12-22T14:14:29Z</time></trkpt>
<trkpt lat="48.096045" lon="-4.383062"><ele>126.0</ele><time>2016-12-22T14:14:36Z</time></trkpt>
<trkpt lat="48.095962" lon="-4.383030"><ele>127.0</ele><time>2016-12-22T14:14:41Z</time></trkpt>
<trkpt lat="48.095882" lon="-4.382988"><ele>124.0</ele><time>2016-12-22T14:14:46Z</time></trkpt>
<trkpt lat="48.095801" lon="-4.382962"><ele>124.0</ele><time>2016-12-22T14:14:51Z</time></trkpt>
<trkpt lat="48.095716" lon="-4.382929"><ele>122.0</ele><time>2016-12-22T14:14:57Z</time></trkpt>
<trkpt lat="48.095636" lon="-4.382902"><ele>124.0</ele><time>2016-12-22T14:15:03Z</time></trkpt>
<trkpt lat="48.095549" lon="-4.382891"><ele>126.0</ele><time>2016-12-22T14:15:10Z</time></trkpt>
<trkpt lat="48.095471" lon="-4.382872"><ele>127.0</ele><time>2016-12-22T14:15:15Z</time></trkpt>
<trkpt lat="48.095385" lon="-4.382875"><ele>127.0</ele><time>2016-12-22T14:15:21Z</time></trkpt>
<trkpt lat="48.095316" lon="-4.382806"><ele>127.0</ele><time>2016-12-22T14:15:27Z</time></trkpt>
<trkpt lat="48.095280" lon="-4.382696"><ele>126.0</ele><time>2016-12-22T14:15:33Z</time></trkpt>
<trkpt lat="48.095262" lon="-4.382568"><ele>126.0</ele><time>2016-12-22T14:15:42Z</time></trkpt>
<trkpt lat="48.095234" lon="-4.382461"><ele>126.0</ele><time>2016-12-22T14:15:47Z</time></trkpt>
<trkpt lat="48.095197" lon="-4.382349"><ele>123.0</ele><time>2016-12-22T14:15:53Z</time></trkpt>
<trkpt lat="48.095178" lon="-4.382223"><ele>122.0</ele><time>2016-12-22T14:15:59Z</time></trkpt>
<trkpt lat="48.095168" lon="-4.382094"><ele>121.0</ele><time>2016-12-22T14:16:05Z</time></trkpt>
<trkpt lat="48.095169" lon="-4.381970"><ele>122.0</ele><time>2016-12-22T14:16:10Z</time></trkpt>
<trkpt lat="48.095149" lon="-4.381858"><ele>122.0</ele><time>2016-12-22T14:16:15Z</time></trkpt>
<trkpt lat="48.095108" lon="-4.381743"><ele>124.0</ele><time>2016-12-22T14:16:20Z</time></trkpt>
<trkpt lat="48.095032" lon="-4.381763"><ele>122.0</ele><time>2016-12-22T14:16:27Z</time></trkpt>
<trkpt lat="48.094950" lon="-4.381827"><ele>124.0</ele><time>2016-12-22T14:16:32Z</time></trkpt>
<trkpt lat="48.094864" lon="-4.381859"><ele>126.0</ele><time>2016-12-22T14:16:38Z</time></trkpt>
<trkpt lat="48.094783" lon="-4.381926"><ele>125.0</ele><time>2016-12-22T14:16:43Z</time></trkpt>
<trkpt lat="48.094718" lon="-4.381978"><ele>126.0</ele><time>2016-12-22T14:16:47Z</time></trkpt>
<trkpt lat="48.094659" lon="-4.382039"><ele>126.0</ele><time>2016-12-22T14:16:51Z</time></trkpt>
<trkpt lat="48.094604" lon="-4.382114"><ele>125.0</ele><time>2016-12-22T14:16:56Z</time></trkpt>
<trkpt lat="48.094522" lon="-4.382154"><ele>125.0</ele><time>2016-12-22T14:17:01Z</time></trkpt>
<trkpt lat="48.094447" lon="-4.382175"><ele>124.0</ele><time>2016-12-22T14:17:06Z</time></trkpt>
<trkpt lat="48.094364" lon="-4.382222"><ele>122.0</ele><time>2016-12-22T14:17:12Z</time></trkpt>
<trkpt lat="48.094291" lon="-4.382269"><ele>122.0</ele><time>2016-12-22T14:17:18Z</time></trkpt>
<trkpt lat="48.094217" lon="-4.382321"><ele>123.0</ele><time>2016-12-22T14:17:24Z</time></trkpt>
<trkpt lat="48.094132" lon="-4.382348"><ele>124.0</ele><time>2016-12-22T14:17:30Z</time></trkpt>
<trkpt lat="48.094059" lon="-4.382391"><ele>126.0</ele><time>2016-12-22T14:17:35Z</time></trkpt>
<trkpt lat="48.093985" lon="-4.382430"><ele>124.0</ele><time>2016-12-22T14:17:40Z</time></trkpt>
<trkpt lat="48.093907" lon="-4.382471"><ele>125.0</ele><time>2016-12-22T14:17:46Z</time></trkpt>
<trkpt lat="48.093839" lon="-4.382521"><ele>125.0</ele><time>2016-12-22T14:17:51Z</time></trkpt>
<trkpt lat="48.093766" lon="-4.382578"><ele>124.0</ele><time>2016-12-22T14:17:56Z</time></trkpt>
<trkpt lat="48.093692" lon="-4.382631"><ele>122.0</ele><time>2016-12-22T14:18:01Z</time></trkpt>
<trkpt lat="48.093614" lon="-4.382686"><ele>121.0</ele><time>2016-12-22T14:18:06Z</time></trkpt>
<trkpt lat="48.093538" lon="-4.382725"><ele>120.0</ele><time>2016-12-22T14:18:11Z</time></trkpt>
<trkpt lat="48.093456" lon="-4.382762"><ele>120.0</ele><time>2016-12-22T14:18:16Z</time></trkpt>
<trkpt lat="48.093383" lon="-4.382785"><ele>121.0</ele><time>2016-12-22T14:18:21Z</time></trkpt>
<trkpt lat="48.093299" lon="-4.382791"><ele>120.0</ele><time>2016-12-22T14:18:27Z</time></trkpt>
<trkpt lat="48.093225" lon="-4.382809"><ele>121.0</ele><time>2016-12-22T14:18:32Z</time></trkpt>
<trkpt lat="48.093148" lon="-4.382845"><ele>121.0</ele><time>2016-12-22T14:18:37Z</time></trkpt>
<trkpt lat="48.093075" lon="-4.382854"><ele>120.0</ele><time>2016-12-22T14:18:44Z</time></trkpt>
<trkpt lat="48.092998" lon="-4.382896"><ele>122.0</ele><time>2016-12-22T14:18:51Z</time></trkpt>
<trkpt lat="48.092913" lon="-4.382933"><ele>120.0</ele><time>2016-12-22T14:18:58Z</time></trkpt>
<trkpt lat="48.092830" lon="-4.382942"><ele>116.0</ele><time>2016-12-22T14:19:04Z</time></trkpt>
<trkpt lat="48.092751" lon="-4.382980"><ele>116.0</ele><time>2016-12-22T14:19:09Z</time></trkpt>
<trkpt lat="48.092688" lon="-4.383025"><ele>118.0</ele><time>2016-12-22T14:19:14Z</time></trkpt>
<trkpt lat="48.092601" lon="-4.383090"><ele>117.0</ele><time>2016-12-22T14:19:19Z</time></trkpt>
<trkpt lat="48.092519" lon="-4.383165"><ele>116.0</ele><time>2016-12-22T14:19:23Z</time></trkpt>
<trkpt lat="48.092447" lon="-4.383208"><ele>116.0</ele><time>2016-12-22T14:19:28Z</time></trkpt>
<trkpt lat="48.092383" lon="-4.383273"><ele>117.0</ele><time>2016-12-22T14:19:33Z</time></trkpt>
<trkpt lat="48.092309" lon="-4.383339"><ele>120.0</ele><time>2016-12-22T14:19:40Z</time></trkpt>
<trkpt lat="48.092224" lon="-4.383367"><ele>122.0</ele><time>2016-12-22T14:19:45Z</time></trkpt>
<trkpt lat="48.092146" lon="-4.383409"><ele>125.0</ele><time>2016-12-22T14:19:51Z</time></trkpt>
<trkpt lat="48.092068" lon="-4.383461"><ele>125.0</ele><time>2016-12-22T14:19:58Z</time></trkpt>
<trkpt lat="48.091984" lon="-4.383499"><ele>125.0</ele><time>2016-12-22T14:20:04Z</time></trkpt>
<trkpt lat="48.091911" lon="-4.383549"><ele>122.0</ele><time>2016-12-22T14:20:11Z</time></trkpt>
<trkpt lat="48.091833" lon="-4.383612"><ele>123.0</ele><time>2016-12-22T14:20:17Z</time></trkpt>
<trkpt lat="48.091762" lon="-4.383654"><ele>123.0</ele><time>2016-12-22T14:20:22Z</time></trkpt>
<trkpt lat="48.091683" lon="-4.383705"><ele>122.0</ele><time>2016-12-22T14:20:27Z</time></trkpt>
<trkpt lat="48.091610" lon="-4.383752"><ele>120.0</ele><time>2016-12-22T14:20:32Z</time></trkpt>
<trkpt lat="48.091531" lon="-4.383806"><ele>119.0</ele><time>2016-12-22T14:20:39Z</time></trkpt>
<trkpt lat="48.091454" lon="-4.383846"><ele>118.0</ele><time>2016-12-22T14:20:44Z</time></trkpt>
<trkpt lat="48.091387" lon="-4.383901"><ele>121.0</ele><time>2016-12-22T14:20:51Z</time></trkpt>
<trkpt lat="48.091307" lon="-4.383951"><ele>120.0</ele><time>2016-12-22T14:20:56Z</time></trkpt>



Partager le fichier

Télécharger 20161223.gpx

Télécharger le fichier (144 Ko)